<?xml version="1.0" encoding="UTF-8" standalone="no" ?>
<gpx xmlns="http://www.topografix.com/GPX/1/1" xmlns:xsi="http://www.w3.org/2001/XMLSchema-instance" xsi:schemaLocation="http://www.topografix.com/GPX/1/1 http://www.topografix.com/GPX/1/1/gpx.xsd" version="1.1" creator="VisuGPX - https://www.visugpx.com">
  <metadata>
    <name>Randonnée Octobre rose.</name>
    <desc><![CDATA[Départ le Robin-la Trouche-retour par la voie verte.]]></desc>
  </metadata>
  <trk>
    <name><![CDATA[Randonnée Octobre rose._1]]></name>
    <trkseg>
      <trkpt lat="48.40763" lon="6.84771">
        <ele>282</ele>
        <time>2018-10-07T09:49:10+02:00</time>
      </trkpt>
      <trkpt lat="48.40746" lon="6.84782">
        <ele>282</ele>
      </trkpt>
      <trkpt lat="48.40735" lon="6.84731">
        <ele>282</ele>
      </trkpt>
      <trkpt lat="48.40722" lon="6.84685">
        <ele>283</ele>
      </trkpt>
      <trkpt lat="48.40728" lon="6.8466">
        <ele>284</ele>
      </trkpt>
      <trkpt lat="48.40726" lon="6.84638">
        <ele>284</ele>
      </trkpt>
      <trkpt lat="48.4072" lon="6.84602">
        <ele>284</ele>
      </trkpt>
      <trkpt lat="48.40721" lon="6.84571">
        <ele>284</ele>
      </trkpt>
      <trkpt lat="48.40674" lon="6.846">
        <ele>285</ele>
      </trkpt>
      <trkpt lat="48.40619" lon="6.8465">
        <ele>285</ele>
      </trkpt>
      <trkpt lat="48.40582" lon="6.8467">
        <ele>285</ele>
      </trkpt>
      <trkpt lat="48.40547" lon="6.84696">
        <ele>285</ele>
      </trkpt>
      <trkpt lat="48.40522" lon="6.84661">
        <ele>285</ele>
      </trkpt>
      <trkpt lat="48.40491" lon="6.84712">
        <ele>285</ele>
      </trkpt>
      <trkpt lat="48.4046" lon="6.84746">
        <ele>286</ele>
      </trkpt>
      <trkpt lat="48.40471" lon="6.84778">
        <ele>287</ele>
      </trkpt>
      <trkpt lat="48.40462" lon="6.848">
        <ele>288</ele>
      </trkpt>
      <trkpt lat="48.40443" lon="6.84845">
        <ele>290</ele>
      </trkpt>
      <trkpt lat="48.40431" lon="6.84873">
        <ele>291</ele>
      </trkpt>
      <trkpt lat="48.40419" lon="6.84902">
        <ele>292</ele>
      </trkpt>
      <trkpt lat="48.40394" lon="6.84962">
        <ele>293</ele>
      </trkpt>
      <trkpt lat="48.4037" lon="6.85024">
        <ele>295</ele>
      </trkpt>
      <trkpt lat="48.40352" lon="6.85093">
        <ele>297</ele>
      </trkpt>
      <trkpt lat="48.40329" lon="6.85234">
        <ele>298</ele>
        <time>2018-10-07T09:49:44+02:00</time>
      </trkpt>
      <trkpt lat="48.40326" lon="6.85253">
        <ele>299</ele>
        <time>2018-10-07T09:49:53+02:00</time>
      </trkpt>
      <trkpt lat="48.4032" lon="6.85275">
        <ele>300</ele>
        <time>2018-10-07T09:50:06+02:00</time>
      </trkpt>
      <trkpt lat="48.40314" lon="6.85296">
        <ele>300</ele>
        <time>2018-10-07T09:50:17+02:00</time>
      </trkpt>
      <trkpt lat="48.4031" lon="6.85321">
        <ele>301</ele>
        <time>2018-10-07T09:50:30+02:00</time>
      </trkpt>
      <trkpt lat="48.40309" lon="6.85343">
        <ele>302</ele>
        <time>2018-10-07T09:50:42+02:00</time>
      </trkpt>
      <trkpt lat="48.40308" lon="6.85367">
        <ele>303</ele>
        <time>2018-10-07T09:50:55+02:00</time>
      </trkpt>
      <trkpt lat="48.40308" lon="6.85378">
        <ele>304</ele>
        <time>2018-10-07T09:51:02+02:00</time>
      </trkpt>
      <trkpt lat="48.40309" lon="6.8538">
        <ele>304</ele>
        <time>2018-10-07T09:51:03+02:00</time>
      </trkpt>
      <trkpt lat="48.40309" lon="6.85382">
        <ele>304</ele>
        <time>2018-10-07T09:51:04+02:00</time>
      </trkpt>
      <trkpt lat="48.40309" lon="6.85384">
        <ele>304</ele>
        <time>2018-10-07T09:51:05+02:00</time>
      </trkpt>
      <trkpt lat="48.40309" lon="6.85386">
        <ele>304</ele>
        <time>2018-10-07T09:51:06+02:00</time>
      </trkpt>
      <trkpt lat="48.40309" lon="6.85389">
        <ele>304</ele>
        <time>2018-10-07T09:51:08+02:00</time>
      </trkpt>
      <trkpt lat="48.4031" lon="6.85391">
        <ele>304</ele>
        <time>2018-10-07T09:51:09+02:00</time>
      </trkpt>
      <trkpt lat="48.4031" lon="6.85392">
        <ele>304</ele>
        <time>2018-10-07T09:51:10+02:00</time>
      </trkpt>
      <trkpt lat="48.4031" lon="6.85394">
        <ele>304</ele>
        <time>2018-10-07T09:51:11+02:00</time>
      </trkpt>
      <trkpt lat="48.4031" lon="6.85396">
        <ele>304</ele>
        <time>2018-10-07T09:51:12+02:00</time>
      </trkpt>
      <trkpt lat="48.40313" lon="6.85409">
        <ele>304</ele>
        <time>2018-10-07T09:51:19+02:00</time>
      </trkpt>
      <trkpt lat="48.40313" lon="6.85411">
        <ele>304</ele>
        <time>2018-10-07T09:51:20+02:00</time>
      </trkpt>
      <trkpt lat="48.40316" lon="6.85436">
        <ele>305</ele>
        <time>2018-10-07T09:51:35+02:00</time>
      </trkpt>
      <trkpt lat="48.40314" lon="6.85451">
        <ele>306</ele>
        <time>2018-10-07T09:51:43+02:00</time>
      </trkpt>
      <trkpt lat="48.40312" lon="6.85474">
        <ele>307</ele>
        <time>2018-10-07T09:51:57+02:00</time>
      </trkpt>
      <trkpt lat="48.40307" lon="6.85496">
        <ele>308</ele>
        <time>2018-10-07T09:52:10+02:00</time>
      </trkpt>
      <trkpt lat="48.40297" lon="6.8552">
        <ele>309</ele>
        <time>2018-10-07T09:52:26+02:00</time>
      </trkpt>
      <trkpt lat="48.40287" lon="6.85543">
        <ele>311</ele>
        <time>2018-10-07T09:52:41+02:00</time>
      </trkpt>
      <trkpt lat="48.40279" lon="6.85564">
        <ele>311</ele>
        <time>2018-10-07T09:52:55+02:00</time>
      </trkpt>
      <trkpt lat="48.4027" lon="6.85591">
        <ele>312</ele>
        <time>2018-10-07T09:53:11+02:00</time>
      </trkpt>
      <trkpt lat="48.40262" lon="6.85616">
        <ele>313</ele>
        <time>2018-10-07T09:53:27+02:00</time>
      </trkpt>
      <trkpt lat="48.40254" lon="6.85641">
        <ele>314</ele>
        <time>2018-10-07T09:53:43+02:00</time>
      </trkpt>
      <trkpt lat="48.40252" lon="6.85652">
        <ele>314</ele>
        <time>2018-10-07T09:53:49+02:00</time>
      </trkpt>
      <trkpt lat="48.40252" lon="6.85654">
        <ele>314</ele>
        <time>2018-10-07T09:53:50+02:00</time>
      </trkpt>
      <trkpt lat="48.40253" lon="6.85658">
        <ele>314</ele>
        <time>2018-10-07T09:53:53+02:00</time>
      </trkpt>
      <trkpt lat="48.40253" lon="6.8566">
        <ele>314</ele>
        <time>2018-10-07T09:53:54+02:00</time>
      </trkpt>
      <trkpt lat="48.40253" lon="6.8569">
        <ele>314</ele>
        <time>2018-10-07T09:54:09+02:00</time>
      </trkpt>
      <trkpt lat="48.40253" lon="6.85712">
        <ele>315</ele>
        <time>2018-10-07T09:54:21+02:00</time>
      </trkpt>
      <trkpt lat="48.4025" lon="6.85736">
        <ele>316</ele>
        <time>2018-10-07T09:54:34+02:00</time>
      </trkpt>
      <trkpt lat="48.40246" lon="6.85758">
        <ele>316</ele>
        <time>2018-10-07T09:54:48+02:00</time>
      </trkpt>
      <trkpt lat="48.40245" lon="6.8578">
        <ele>317</ele>
        <time>2018-10-07T09:55:00+02:00</time>
      </trkpt>
      <trkpt lat="48.40243" lon="6.85811">
        <ele>318</ele>
        <time>2018-10-07T09:55:17+02:00</time>
      </trkpt>
      <trkpt lat="48.40242" lon="6.85839">
        <ele>319</ele>
        <time>2018-10-07T09:55:32+02:00</time>
      </trkpt>
      <trkpt lat="48.40243" lon="6.85868">
        <ele>320</ele>
        <time>2018-10-07T09:55:47+02:00</time>
      </trkpt>
      <trkpt lat="48.4025" lon="6.859">
        <ele>321</ele>
        <time>2018-10-07T09:56:06+02:00</time>
      </trkpt>
      <trkpt lat="48.40256" lon="6.85927">
        <ele>322</ele>
        <time>2018-10-07T09:56:21+02:00</time>
      </trkpt>
      <trkpt lat="48.40256" lon="6.85929">
        <ele>322</ele>
        <time>2018-10-07T09:56:22+02:00</time>
      </trkpt>
      <trkpt lat="48.40257" lon="6.8593">
        <ele>322</ele>
        <time>2018-10-07T09:56:23+02:00</time>
      </trkpt>
      <trkpt lat="48.40257" lon="6.85932">
        <ele>322</ele>
        <time>2018-10-07T09:56:24+02:00</time>
      </trkpt>
      <trkpt lat="48.40257" lon="6.85934">
        <ele>322</ele>
        <time>2018-10-07T09:56:25+02:00</time>
      </trkpt>
      <trkpt lat="48.40259" lon="6.85943">
        <ele>323</ele>
        <time>2018-10-07T09:56:30+02:00</time>
      </trkpt>
      <trkpt lat="48.4026" lon="6.85944">
        <ele>323</ele>
        <time>2018-10-07T09:56:31+02:00</time>
      </trkpt>
      <trkpt lat="48.4026" lon="6.85946">
        <ele>323</ele>
        <time>2018-10-07T09:56:32+02:00</time>
      </trkpt>
      <trkpt lat="48.4026" lon="6.85948">
        <ele>323</ele>
        <time>2018-10-07T09:56:33+02:00</time>
      </trkpt>
      <trkpt lat="48.40261" lon="6.85949">
        <ele>323</ele>
        <time>2018-10-07T09:56:34+02:00</time>
      </trkpt>
      <trkpt lat="48.40262" lon="6.85953">
        <ele>323</ele>
        <time>2018-10-07T09:56:36+02:00</time>
      </trkpt>
      <trkpt lat="48.4027" lon="6.85984">
        <ele>324</ele>
        <time>2018-10-07T09:56:54+02:00</time>
      </trkpt>
      <trkpt lat="48.40272" lon="6.8599">
        <ele>324</ele>
        <time>2018-10-07T09:56:58+02:00</time>
      </trkpt>
      <trkpt lat="48.40272" lon="6.85992">
        <ele>324</ele>
        <time>2018-10-07T09:56:59+02:00</time>
      </trkpt>
      <trkpt lat="48.40273" lon="6.85993">
        <ele>324</ele>
        <time>2018-10-07T09:57:00+02:00</time>
      </trkpt>
      <trkpt lat="48.40273" lon="6.85995">
        <ele>324</ele>
        <time>2018-10-07T09:57:01+02:00</time>
      </trkpt>
      <trkpt lat="48.40274" lon="6.85996">
        <ele>324</ele>
        <time>2018-10-07T09:57:02+02:00</time>
      </trkpt>
      <trkpt lat="48.40274" lon="6.85998">
        <ele>324</ele>
        <time>2018-10-07T09:57:03+02:00</time>
      </trkpt>
      <trkpt lat="48.40275" lon="6.86">
        <ele>324</ele>
        <time>2018-10-07T09:57:04+02:00</time>
      </trkpt>
      <trkpt lat="48.40279" lon="6.86015">
        <ele>324</ele>
        <time>2018-10-07T09:57:13+02:00</time>
      </trkpt>
      <trkpt lat="48.40283" lon="6.86046">
        <ele>325</ele>
        <time>2018-10-07T09:57:30+02:00</time>
      </trkpt>
      <trkpt lat="48.40285" lon="6.86062">
        <ele>325</ele>
        <time>2018-10-07T09:57:39+02:00</time>
      </trkpt>
      <trkpt lat="48.40285" lon="6.86071">
        <ele>325</ele>
        <time>2018-10-07T09:57:44+02:00</time>
      </trkpt>
      <trkpt lat="48.40285" lon="6.86074">
        <ele>325</ele>
        <time>2018-10-07T09:57:45+02:00</time>
      </trkpt>
      <trkpt lat="48.40285" lon="6.86076">
        <ele>325</ele>
        <time>2018-10-07T09:57:46+02:00</time>
      </trkpt>
      <trkpt lat="48.40287" lon="6.86093">
        <ele>326</ele>
        <time>2018-10-07T09:57:56+02:00</time>
      </trkpt>
      <trkpt lat="48.40287" lon="6.86095">
        <ele>326</ele>
        <time>2018-10-07T09:57:57+02:00</time>
      </trkpt>
      <trkpt lat="48.40287" lon="6.86097">
        <ele>326</ele>
        <time>2018-10-07T09:57:58+02:00</time>
      </trkpt>
      <trkpt lat="48.40292" lon="6.86129">
        <ele>327</ele>
        <time>2018-10-07T09:58:15+02:00</time>
      </trkpt>
      <trkpt lat="48.40293" lon="6.86147">
        <ele>328</ele>
        <time>2018-10-07T09:58:24+02:00</time>
      </trkpt>
      <trkpt lat="48.40294" lon="6.86148">
        <ele>328</ele>
        <time>2018-10-07T09:58:25+02:00</time>
      </trkpt>
      <trkpt lat="48.40295" lon="6.86151">
        <ele>328</ele>
        <time>2018-10-07T09:58:27+02:00</time>
      </trkpt>
      <trkpt lat="48.40297" lon="6.86179">
        <ele>329</ele>
        <time>2018-10-07T09:58:42+02:00</time>
      </trkpt>
      <trkpt lat="48.40297" lon="6.86181">
        <ele>329</ele>
        <time>2018-10-07T09:58:43+02:00</time>
      </trkpt>
      <trkpt lat="48.40298" lon="6.86183">
        <ele>329</ele>
        <time>2018-10-07T09:58:44+02:00</time>
      </trkpt>
      <trkpt lat="48.40301" lon="6.86203">
        <ele>330</ele>
        <time>2018-10-07T09:58:57+02:00</time>
      </trkpt>
      <trkpt lat="48.40302" lon="6.86204">
        <ele>330</ele>
        <time>2018-10-07T09:58:58+02:00</time>
      </trkpt>
      <trkpt lat="48.40303" lon="6.8621">
        <ele>331</ele>
        <time>2018-10-07T09:59:02+02:00</time>
      </trkpt>
      <trkpt lat="48.40303" lon="6.86211">
        <ele>331</ele>
        <time>2018-10-07T09:59:03+02:00</time>
      </trkpt>
      <trkpt lat="48.40307" lon="6.86237">
        <ele>332</ele>
        <time>2018-10-07T09:59:18+02:00</time>
      </trkpt>
      <trkpt lat="48.40309" lon="6.86245">
        <ele>332</ele>
        <time>2018-10-07T09:59:23+02:00</time>
      </trkpt>
      <trkpt lat="48.40311" lon="6.8625">
        <ele>332</ele>
        <time>2018-10-07T09:59:26+02:00</time>
      </trkpt>
      <trkpt lat="48.40311" lon="6.86251">
        <ele>332</ele>
        <time>2018-10-07T09:59:27+02:00</time>
      </trkpt>
      <trkpt lat="48.40312" lon="6.86253">
        <ele>332</ele>
        <time>2018-10-07T09:59:28+02:00</time>
      </trkpt>
      <trkpt lat="48.40312" lon="6.86255">
        <ele>332</ele>
        <time>2018-10-07T09:59:29+02:00</time>
      </trkpt>
      <trkpt lat="48.40312" lon="6.86257">
        <ele>333</ele>
        <time>2018-10-07T09:59:30+02:00</time>
      </trkpt>
      <trkpt lat="48.40313" lon="6.86258">
        <ele>333</ele>
        <time>2018-10-07T09:59:31+02:00</time>
      </trkpt>
      <trkpt lat="48.40314" lon="6.86268">
        <ele>333</ele>
        <time>2018-10-07T09:59:37+02:00</time>
      </trkpt>
      <trkpt lat="48.40314" lon="6.8627">
        <ele>333</ele>
        <time>2018-10-07T09:59:38+02:00</time>
      </trkpt>
      <trkpt lat="48.40319" lon="6.86296">
        <ele>334</ele>
        <time>2018-10-07T09:59:52+02:00</time>
      </trkpt>
      <trkpt lat="48.40322" lon="6.86306">
        <ele>335</ele>
        <time>2018-10-07T09:59:57+02:00</time>
      </trkpt>
      <trkpt lat="48.40322" lon="6.86308">
        <ele>335</ele>
        <time>2018-10-07T09:59:58+02:00</time>
      </trkpt>
      <trkpt lat="48.40322" lon="6.8631">
        <ele>335</ele>
        <time>2018-10-07T09:59:59+02:00</time>
      </trkpt>
      <trkpt lat="48.40322" lon="6.86312">
        <ele>335</ele>
        <time>2018-10-07T10:00:00+02:00</time>
      </trkpt>
      <trkpt lat="48.40323" lon="6.86313">
        <ele>335</ele>
        <time>2018-10-07T10:00:01+02:00</time>
      </trkpt>
      <trkpt lat="48.40323" lon="6.86315">
        <ele>335</ele>
        <time>2018-10-07T10:00:02+02:00</time>
      </trkpt>
      <trkpt lat="48.40324" lon="6.86317">
        <ele>335</ele>
        <time>2018-10-07T10:00:03+02:00</time>
      </trkpt>
      <trkpt lat="48.40324" lon="6.86319">
        <ele>335</ele>
        <time>2018-10-07T10:00:04+02:00</time>
      </trkpt>
      <trkpt lat="48.40327" lon="6.86344">
        <ele>337</ele>
        <time>2018-10-07T10:00:18+02:00</time>
      </trkpt>
      <trkpt lat="48.40328" lon="6.86366">
        <ele>338</ele>
        <time>2018-10-07T10:00:31+02:00</time>
      </trkpt>
      <trkpt lat="48.40328" lon="6.86368">
        <ele>339</ele>
        <time>2018-10-07T10:00:32+02:00</time>
      </trkpt>
      <trkpt lat="48.40328" lon="6.8637">
        <ele>339</ele>
        <time>2018-10-07T10:00:33+02:00</time>
      </trkpt>
      <trkpt lat="48.40328" lon="6.86371">
        <ele>339</ele>
        <time>2018-10-07T10:00:34+02:00</time>
      </trkpt>
      <trkpt lat="48.40328" lon="6.86373">
        <ele>339</ele>
        <time>2018-10-07T10:00:35+02:00</time>
      </trkpt>
      <trkpt lat="48.40332" lon="6.86395">
        <ele>340</ele>
        <time>2018-10-07T10:00:47+02:00</time>
      </trkpt>
      <trkpt lat="48.40332" lon="6.86397">
        <ele>341</ele>
        <time>2018-10-07T10:00:48+02:00</time>
      </trkpt>
      <trkpt lat="48.40332" lon="6.86399">
        <ele>341</ele>
        <time>2018-10-07T10:00:49+02:00</time>
      </trkpt>
      <trkpt lat="48.40332" lon="6.86401">
        <ele>341</ele>
        <time>2018-10-07T10:00:50+02:00</time>
      </trkpt>
      <trkpt lat="48.40335" lon="6.86423">
        <ele>342</ele>
        <time>2018-10-07T10:01:02+02:00</time>
      </trkpt>
      <trkpt lat="48.40335" lon="6.86425">
        <ele>342</ele>
        <time>2018-10-07T10:01:03+02:00</time>
      </trkpt>
      <trkpt lat="48.40336" lon="6.86447">
        <ele>342</ele>
        <time>2018-10-07T10:01:15+02:00</time>
      </trkpt>
      <trkpt lat="48.40337" lon="6.8645">
        <ele>343</ele>
        <time>2018-10-07T10:01:17+02:00</time>
      </trkpt>
      <trkpt lat="48.40337" lon="6.86454">
        <ele>343</ele>
        <time>2018-10-07T10:01:19+02:00</time>
      </trkpt>
      <trkpt lat="48.40337" lon="6.86478">
        <ele>343</ele>
        <time>2018-10-07T10:01:32+02:00</time>
      </trkpt>
      <trkpt lat="48.40341" lon="6.865">
        <ele>343</ele>
        <time>2018-10-07T10:01:45+02:00</time>
      </trkpt>
      <trkpt lat="48.40344" lon="6.86533">
        <ele>343</ele>
        <time>2018-10-07T10:02:02+02:00</time>
      </trkpt>
      <trkpt lat="48.40341" lon="6.86557">
        <ele>343</ele>
        <time>2018-10-07T10:02:17+02:00</time>
      </trkpt>
      <trkpt lat="48.40335" lon="6.86584">
        <ele>343</ele>
        <time>2018-10-07T10:02:33+02:00</time>
      </trkpt>
      <trkpt lat="48.40332" lon="6.86592">
        <ele>343</ele>
        <time>2018-10-07T10:02:38+02:00</time>
      </trkpt>
      <trkpt lat="48.40328" lon="6.8661">
        <ele>343</ele>
        <time>2018-10-07T10:02:50+02:00</time>
      </trkpt>
      <trkpt lat="48.40322" lon="6.86636">
        <ele>343</ele>
        <time>2018-10-07T10:03:06+02:00</time>
      </trkpt>
      <trkpt lat="48.40319" lon="6.86648">
        <ele>343</ele>
        <time>2018-10-07T10:03:14+02:00</time>
      </trkpt>
      <trkpt lat="48.40311" lon="6.86676">
        <ele>343</ele>
        <time>2018-10-07T10:03:31+02:00</time>
      </trkpt>
      <trkpt lat="48.40307" lon="6.867">
        <ele>343</ele>
        <time>2018-10-07T10:03:45+02:00</time>
      </trkpt>
      <trkpt lat="48.40301" lon="6.86719">
        <ele>343</ele>
        <time>2018-10-07T10:03:59+02:00</time>
      </trkpt>
      <trkpt lat="48.40297" lon="6.86731">
        <ele>344</ele>
        <time>2018-10-07T10:04:08+02:00</time>
      </trkpt>
      <trkpt lat="48.40292" lon="6.86751">
        <ele>345</ele>
        <time>2018-10-07T10:04:22+02:00</time>
      </trkpt>
      <trkpt lat="48.40287" lon="6.86768">
        <ele>345</ele>
        <time>2018-10-07T10:04:40+02:00</time>
      </trkpt>
      <trkpt lat="48.40286" lon="6.86769">
        <ele>346</ele>
        <time>2018-10-07T10:04:41+02:00</time>
      </trkpt>
      <trkpt lat="48.40286" lon="6.86771">
        <ele>346</ele>
        <time>2018-10-07T10:04:42+02:00</time>
      </trkpt>
      <trkpt lat="48.40281" lon="6.86791">
        <ele>348</ele>
        <time>2018-10-07T10:04:55+02:00</time>
      </trkpt>
      <trkpt lat="48.40269" lon="6.86826">
        <ele>353</ele>
        <time>2018-10-07T10:05:14+02:00</time>
      </trkpt>
      <trkpt lat="48.40264" lon="6.86846">
        <ele>356</ele>
        <time>2018-10-07T10:05:25+02:00</time>
      </trkpt>
      <trkpt lat="48.40264" lon="6.86848">
        <ele>356</ele>
        <time>2018-10-07T10:05:26+02:00</time>
      </trkpt>
      <trkpt lat="48.40262" lon="6.86852">
        <ele>357</ele>
        <time>2018-10-07T10:05:29+02:00</time>
      </trkpt>
      <trkpt lat="48.40261" lon="6.86854">
        <ele>357</ele>
        <time>2018-10-07T10:05:30+02:00</time>
      </trkpt>
      <trkpt lat="48.40256" lon="6.86881">
        <ele>360</ele>
        <time>2018-10-07T10:05:45+02:00</time>
      </trkpt>
      <trkpt lat="48.40249" lon="6.86916">
        <ele>364</ele>
        <time>2018-10-07T10:06:04+02:00</time>
      </trkpt>
      <trkpt lat="48.40247" lon="6.86937">
        <ele>364</ele>
        <time>2018-10-07T10:06:18+02:00</time>
      </trkpt>
      <trkpt lat="48.40245" lon="6.86945">
        <ele>364</ele>
        <time>2018-10-07T10:06:22+02:00</time>
      </trkpt>
      <trkpt lat="48.40238" lon="6.86972">
        <ele>364</ele>
        <time>2018-10-07T10:06:36+02:00</time>
      </trkpt>
      <trkpt lat="48.40235" lon="6.87003">
        <ele>365</ele>
        <time>2018-10-07T10:06:51+02:00</time>
      </trkpt>
      <trkpt lat="48.40241" lon="6.87034">
        <ele>365</ele>
        <time>2018-10-07T10:07:09+02:00</time>
      </trkpt>
      <trkpt lat="48.4025" lon="6.87055">
        <ele>366</ele>
        <time>2018-10-07T10:07:23+02:00</time>
      </trkpt>
      <trkpt lat="48.40257" lon="6.87076">
        <ele>364</ele>
        <time>2018-10-07T10:07:37+02:00</time>
      </trkpt>
      <trkpt lat="48.40265" lon="6.87093">
        <ele>362</ele>
        <time>2018-10-07T10:07:49+02:00</time>
      </trkpt>
      <trkpt lat="48.40265" lon="6.87095">
        <ele>362</ele>
        <time>2018-10-07T10:07:50+02:00</time>
      </trkpt>
      <trkpt lat="48.40266" lon="6.87096">
        <ele>362</ele>
        <time>2018-10-07T10:07:51+02:00</time>
      </trkpt>
      <trkpt lat="48.40268" lon="6.87099">
        <ele>362</ele>
        <time>2018-10-07T10:07:53+02:00</time>
      </trkpt>
      <trkpt lat="48.40271" lon="6.87107">
        <ele>362</ele>
        <time>2018-10-07T10:07:59+02:00</time>
      </trkpt>
      <trkpt lat="48.40272" lon="6.87109">
        <ele>362</ele>
        <time>2018-10-07T10:08:00+02:00</time>
      </trkpt>
      <trkpt lat="48.40281" lon="6.87133">
        <ele>364</ele>
        <time>2018-10-07T10:08:16+02:00</time>
      </trkpt>
      <trkpt lat="48.40291" lon="6.87157">
        <ele>367</ele>
        <time>2018-10-07T10:08:32+02:00</time>
      </trkpt>
      <trkpt lat="48.40295" lon="6.8717">
        <ele>369</ele>
        <time>2018-10-07T10:08:40+02:00</time>
      </trkpt>
      <trkpt lat="48.40296" lon="6.87173">
        <ele>369</ele>
        <time>2018-10-07T10:08:42+02:00</time>
      </trkpt>
      <trkpt lat="48.40297" lon="6.87174">
        <ele>369</ele>
        <time>2018-10-07T10:08:43+02:00</time>
      </trkpt>
      <trkpt lat="48.40299" lon="6.87181">
        <ele>370</ele>
        <time>2018-10-07T10:08:47+02:00</time>
      </trkpt>
      <trkpt lat="48.403" lon="6.87182">
        <ele>370</ele>
        <time>2018-10-07T10:08:48+02:00</time>
      </trkpt>
      <trkpt lat="48.403" lon="6.87184">
        <ele>370</ele>
        <time>2018-10-07T10:08:49+02:00</time>
      </trkpt>
      <trkpt lat="48.40301" lon="6.87185">
        <ele>371</ele>
        <time>2018-10-07T10:08:50+02:00</time>
      </trkpt>
      <trkpt lat="48.40301" lon="6.87187">
        <ele>371</ele>
        <time>2018-10-07T10:08:51+02:00</time>
      </trkpt>
      <trkpt lat="48.4031" lon="6.8721">
        <ele>374</ele>
        <time>2018-10-07T10:09:06+02:00</time>
      </trkpt>
      <trkpt lat="48.4032" lon="6.87234">
        <ele>377</ele>
        <time>2018-10-07T10:09:22+02:00</time>
      </trkpt>
      <trkpt lat="48.40322" lon="6.8724">
        <ele>379</ele>
        <time>2018-10-07T10:09:26+02:00</time>
      </trkpt>
      <trkpt lat="48.40323" lon="6.87243">
        <ele>379</ele>
        <time>2018-10-07T10:09:28+02:00</time>
      </trkpt>
      <trkpt lat="48.40324" lon="6.87245">
        <ele>379</ele>
        <time>2018-10-07T10:09:29+02:00</time>
      </trkpt>
      <trkpt lat="48.40325" lon="6.87246">
        <ele>380</ele>
        <time>2018-10-07T10:09:30+02:00</time>
      </trkpt>
      <trkpt lat="48.4034" lon="6.87278">
        <ele>382</ele>
        <time>2018-10-07T10:09:50+02:00</time>
      </trkpt>
      <trkpt lat="48.40346" lon="6.87286">
        <ele>382</ele>
        <time>2018-10-07T10:09:57+02:00</time>
      </trkpt>
      <trkpt lat="48.40355" lon="6.87294">
        <ele>381</ele>
        <time>2018-10-07T10:10:10+02:00</time>
      </trkpt>
      <trkpt lat="48.40357" lon="6.87294">
        <ele>381</ele>
        <time>2018-10-07T10:10:11+02:00</time>
      </trkpt>
      <trkpt lat="48.40358" lon="6.87295">
        <ele>381</ele>
        <time>2018-10-07T10:10:12+02:00</time>
      </trkpt>
      <trkpt lat="48.40361" lon="6.87295">
        <ele>381</ele>
        <time>2018-10-07T10:10:15+02:00</time>
      </trkpt>
      <trkpt lat="48.40363" lon="6.87295">
        <ele>380</ele>
        <time>2018-10-07T10:10:16+02:00</time>
      </trkpt>
      <trkpt lat="48.40375" lon="6.87297">
        <ele>379</ele>
        <time>2018-10-07T10:10:26+02:00</time>
      </trkpt>
      <trkpt lat="48.40376" lon="6.87297">
        <ele>378</ele>
        <time>2018-10-07T10:10:27+02:00</time>
      </trkpt>
      <trkpt lat="48.40379" lon="6.87297">
        <ele>378</ele>
        <time>2018-10-07T10:10:29+02:00</time>
      </trkpt>
      <trkpt lat="48.40381" lon="6.87297">
        <ele>378</ele>
        <time>2018-10-07T10:10:30+02:00</time>
      </trkpt>
      <trkpt lat="48.40387" lon="6.87297">
        <ele>377</ele>
        <time>2018-10-07T10:10:35+02:00</time>
      </trkpt>
      <trkpt lat="48.40389" lon="6.87297">
        <ele>376</ele>
        <time>2018-10-07T10:10:36+02:00</time>
      </trkpt>
      <trkpt lat="48.40403" lon="6.87298">
        <ele>374</ele>
        <time>2018-10-07T10:10:47+02:00</time>
      </trkpt>
      <trkpt lat="48.40411" lon="6.87298">
        <ele>373</ele>
        <time>2018-10-07T10:10:54+02:00</time>
      </trkpt>
      <trkpt lat="48.4043" lon="6.87306">
        <ele>372</ele>
        <time>2018-10-07T10:11:12+02:00</time>
      </trkpt>
      <trkpt lat="48.40446" lon="6.87317">
        <ele>373</ele>
        <time>2018-10-07T10:11:30+02:00</time>
      </trkpt>
      <trkpt lat="48.40467" lon="6.8733">
        <ele>375</ele>
        <time>2018-10-07T10:11:50+02:00</time>
      </trkpt>
      <trkpt lat="48.40488" lon="6.87345">
        <ele>376</ele>
        <time>2018-10-07T10:12:11+02:00</time>
      </trkpt>
      <trkpt lat="48.40506" lon="6.87359">
        <ele>375</ele>
        <time>2018-10-07T10:12:32+02:00</time>
      </trkpt>
      <trkpt lat="48.40534" lon="6.87377">
        <ele>368</ele>
        <time>2018-10-07T10:12:54+02:00</time>
      </trkpt>
      <trkpt lat="48.40546" lon="6.87394">
        <ele>370</ele>
        <time>2018-10-07T10:13:15+02:00</time>
      </trkpt>
      <trkpt lat="48.40561" lon="6.87413">
        <ele>375</ele>
        <time>2018-10-07T10:13:32+02:00</time>
      </trkpt>
      <trkpt lat="48.40576" lon="6.87438">
        <ele>377</ele>
        <time>2018-10-07T10:13:50+02:00</time>
      </trkpt>
      <trkpt lat="48.40585" lon="6.87462">
        <ele>379</ele>
        <time>2018-10-07T10:14:05+02:00</time>
      </trkpt>
      <trkpt lat="48.40587" lon="6.87463">
        <ele>379</ele>
        <time>2018-10-07T10:14:06+02:00</time>
      </trkpt>
      <trkpt lat="48.40604" lon="6.87481">
        <ele>370</ele>
        <time>2018-10-07T10:14:16+02:00</time>
      </trkpt>
      <trkpt lat="48.4062" lon="6.8751">
        <ele>367</ele>
        <time>2018-10-07T10:14:31+02:00</time>
      </trkpt>
      <trkpt lat="48.40627" lon="6.87536">
        <ele>368</ele>
        <time>2018-10-07T10:14:49+02:00</time>
      </trkpt>
      <trkpt lat="48.40635" lon="6.87561">
        <ele>369</ele>
        <time>2018-10-07T10:15:04+02:00</time>
      </trkpt>
      <trkpt lat="48.40643" lon="6.87587">
        <ele>372</ele>
        <time>2018-10-07T10:15:18+02:00</time>
      </trkpt>
      <trkpt lat="48.4065" lon="6.8762">
        <ele>373</ele>
        <time>2018-10-07T10:15:35+02:00</time>
      </trkpt>
      <trkpt lat="48.40652" lon="6.8763">
        <ele>374</ele>
        <time>2018-10-07T10:15:40+02:00</time>
      </trkpt>
      <trkpt lat="48.40654" lon="6.87637">
        <ele>374</ele>
        <time>2018-10-07T10:15:44+02:00</time>
      </trkpt>
      <trkpt lat="48.40654" lon="6.87639">
        <ele>375</ele>
        <time>2018-10-07T10:15:45+02:00</time>
      </trkpt>
      <trkpt lat="48.40654" lon="6.87643">
        <ele>375</ele>
        <time>2018-10-07T10:15:48+02:00</time>
      </trkpt>
      <trkpt lat="48.40663" lon="6.87666">
        <ele>375</ele>
        <time>2018-10-07T10:16:02+02:00</time>
      </trkpt>
      <trkpt lat="48.40672" lon="6.87695">
        <ele>374</ele>
        <time>2018-10-07T10:16:19+02:00</time>
      </trkpt>
      <trkpt lat="48.40678" lon="6.87721">
        <ele>375</ele>
        <time>2018-10-07T10:16:33+02:00</time>
      </trkpt>
      <trkpt lat="48.40678" lon="6.87723">
        <ele>375</ele>
        <time>2018-10-07T10:16:34+02:00</time>
      </trkpt>
      <trkpt lat="48.40678" lon="6.87725">
        <ele>375</ele>
        <time>2018-10-07T10:16:35+02:00</time>
      </trkpt>
      <trkpt lat="48.40677" lon="6.87727">
        <ele>376</ele>
        <time>2018-10-07T10:16:36+02:00</time>
      </trkpt>
      <trkpt lat="48.40677" lon="6.87754">
        <ele>379</ele>
        <time>2018-10-07T10:16:49+02:00</time>
      </trkpt>
      <trkpt lat="48.40674" lon="6.87779">
        <ele>379</ele>
        <time>2018-10-07T10:17:02+02:00</time>
      </trkpt>
      <trkpt lat="48.40666" lon="6.87807">
        <ele>380</ele>
        <time>2018-10-07T10:17:18+02:00</time>
      </trkpt>
      <trkpt lat="48.40657" lon="6.87825">
        <ele>382</ele>
        <time>2018-10-07T10:17:30+02:00</time>
      </trkpt>
      <trkpt lat="48.40655" lon="6.87829">
        <ele>383</ele>
        <time>2018-10-07T10:17:33+02:00</time>
      </trkpt>
      <trkpt lat="48.40647" lon="6.87841">
        <ele>384</ele>
        <time>2018-10-07T10:17:47+02:00</time>
      </trkpt>
      <trkpt lat="48.40637" lon="6.87848">
        <ele>386</ele>
        <time>2018-10-07T10:17:59+02:00</time>
      </trkpt>
      <trkpt lat="48.4063" lon="6.87854">
        <ele>388</ele>
        <time>2018-10-07T10:18:06+02:00</time>
      </trkpt>
      <trkpt lat="48.40628" lon="6.87855">
        <ele>388</ele>
        <time>2018-10-07T10:18:08+02:00</time>
      </trkpt>
      <trkpt lat="48.40616" lon="6.87863">
        <ele>391</ele>
        <time>2018-10-07T10:18:19+02:00</time>
      </trkpt>
      <trkpt lat="48.40614" lon="6.87864">
        <ele>391</ele>
        <time>2018-10-07T10:18:20+02:00</time>
      </trkpt>
      <trkpt lat="48.406" lon="6.87872">
        <ele>395</ele>
        <time>2018-10-07T10:18:32+02:00</time>
      </trkpt>
      <trkpt lat="48.40596" lon="6.87875">
        <ele>396</ele>
        <time>2018-10-07T10:18:36+02:00</time>
      </trkpt>
      <trkpt lat="48.40582" lon="6.87885">
        <ele>398</ele>
        <time>2018-10-07T10:18:48+02:00</time>
      </trkpt>
      <trkpt lat="48.4057" lon="6.87898">
        <ele>401</ele>
        <time>2018-10-07T10:19:00+02:00</time>
      </trkpt>
      <trkpt lat="48.40556" lon="6.87911">
        <ele>403</ele>
        <time>2018-10-07T10:19:14+02:00</time>
      </trkpt>
      <trkpt lat="48.40547" lon="6.87921">
        <ele>404</ele>
        <time>2018-10-07T10:19:25+02:00</time>
      </trkpt>
      <trkpt lat="48.40545" lon="6.87924">
        <ele>404</ele>
        <time>2018-10-07T10:19:27+02:00</time>
      </trkpt>
      <trkpt lat="48.40544" lon="6.87926">
        <ele>404</ele>
        <time>2018-10-07T10:19:28+02:00</time>
      </trkpt>
      <trkpt lat="48.40534" lon="6.87937">
        <ele>405</ele>
        <time>2018-10-07T10:19:38+02:00</time>
      </trkpt>
      <trkpt lat="48.40533" lon="6.87938">
        <ele>405</ele>
        <time>2018-10-07T10:19:39+02:00</time>
      </trkpt>
      <trkpt lat="48.40522" lon="6.87947">
        <ele>407</ele>
        <time>2018-10-07T10:19:51+02:00</time>
      </trkpt>
      <trkpt lat="48.40517" lon="6.87952">
        <ele>408</ele>
        <time>2018-10-07T10:19:56+02:00</time>
      </trkpt>
      <trkpt lat="48.40515" lon="6.87954">
        <ele>408</ele>
        <time>2018-10-07T10:19:58+02:00</time>
      </trkpt>
      <trkpt lat="48.40514" lon="6.87955">
        <ele>408</ele>
        <time>2018-10-07T10:19:59+02:00</time>
      </trkpt>
      <trkpt lat="48.40509" lon="6.87962">
        <ele>409</ele>
        <time>2018-10-07T10:20:06+02:00</time>
      </trkpt>
      <trkpt lat="48.40509" lon="6.87963">
        <ele>409</ele>
        <time>2018-10-07T10:20:07+02:00</time>
      </trkpt>
      <trkpt lat="48.40505" lon="6.87969">
        <ele>409</ele>
        <time>2018-10-07T10:20:12+02:00</time>
      </trkpt>
      <trkpt lat="48.40502" lon="6.87973">
        <ele>409</ele>
        <time>2018-10-07T10:20:15+02:00</time>
      </trkpt>
      <trkpt lat="48.40501" lon="6.87974">
        <ele>409</ele>
        <time>2018-10-07T10:20:16+02:00</time>
      </trkpt>
      <trkpt lat="48.40487" lon="6.87995">
        <ele>410</ele>
        <time>2018-10-07T10:20:31+02:00</time>
      </trkpt>
      <trkpt lat="48.40486" lon="6.87996">
        <ele>411</ele>
        <time>2018-10-07T10:20:32+02:00</time>
      </trkpt>
      <trkpt lat="48.40485" lon="6.87997">
        <ele>411</ele>
        <time>2018-10-07T10:20:33+02:00</time>
      </trkpt>
      <trkpt lat="48.40475" lon="6.88017">
        <ele>413</ele>
        <time>2018-10-07T10:20:47+02:00</time>
      </trkpt>
      <trkpt lat="48.40474" lon="6.8802">
        <ele>413</ele>
        <time>2018-10-07T10:20:49+02:00</time>
      </trkpt>
      <trkpt lat="48.40463" lon="6.88044">
        <ele>414</ele>
        <time>2018-10-07T10:21:05+02:00</time>
      </trkpt>
      <trkpt lat="48.4046" lon="6.88049">
        <ele>414</ele>
        <time>2018-10-07T10:21:08+02:00</time>
      </trkpt>
      <trkpt lat="48.4046" lon="6.88051">
        <ele>414</ele>
        <time>2018-10-07T10:21:09+02:00</time>
      </trkpt>
      <trkpt lat="48.40459" lon="6.88053">
        <ele>414</ele>
        <time>2018-10-07T10:21:10+02:00</time>
      </trkpt>
      <trkpt lat="48.40457" lon="6.88059">
        <ele>414</ele>
        <time>2018-10-07T10:21:14+02:00</time>
      </trkpt>
      <trkpt lat="48.40456" lon="6.88061">
        <ele>414</ele>
        <time>2018-10-07T10:21:15+02:00</time>
      </trkpt>
      <trkpt lat="48.40448" lon="6.88078">
        <ele>414</ele>
        <time>2018-10-07T10:21:28+02:00</time>
      </trkpt>
      <trkpt lat="48.40438" lon="6.88095">
        <ele>416</ele>
        <time>2018-10-07T10:21:40+02:00</time>
      </trkpt>
      <trkpt lat="48.40437" lon="6.88099">
        <ele>416</ele>
        <time>2018-10-07T10:21:42+02:00</time>
      </trkpt>
      <trkpt lat="48.40434" lon="6.88102">
        <ele>417</ele>
        <time>2018-10-07T10:21:45+02:00</time>
      </trkpt>
      <trkpt lat="48.40433" lon="6.88104">
        <ele>417</ele>
        <time>2018-10-07T10:21:46+02:00</time>
      </trkpt>
      <trkpt lat="48.40431" lon="6.8811">
        <ele>418</ele>
        <time>2018-10-07T10:21:50+02:00</time>
      </trkpt>
      <trkpt lat="48.4043" lon="6.88112">
        <ele>418</ele>
        <time>2018-10-07T10:21:51+02:00</time>
      </trkpt>
      <trkpt lat="48.40428" lon="6.8813">
        <ele>419</ele>
        <time>2018-10-07T10:22:01+02:00</time>
      </trkpt>
      <trkpt lat="48.40428" lon="6.88139">
        <ele>420</ele>
        <time>2018-10-07T10:22:06+02:00</time>
      </trkpt>
      <trkpt lat="48.40427" lon="6.88141">
        <ele>420</ele>
        <time>2018-10-07T10:22:07+02:00</time>
      </trkpt>
      <trkpt lat="48.40427" lon="6.88143">
        <ele>420</ele>
        <time>2018-10-07T10:22:08+02:00</time>
      </trkpt>
      <trkpt lat="48.40427" lon="6.88146">
        <ele>420</ele>
        <time>2018-10-07T10:22:09+02:00</time>
      </trkpt>
      <trkpt lat="48.40428" lon="6.88148">
        <ele>420</ele>
        <time>2018-10-07T10:22:10+02:00</time>
      </trkpt>
      <trkpt lat="48.40428" lon="6.8815">
        <ele>420</ele>
        <time>2018-10-07T10:22:11+02:00</time>
      </trkpt>
      <trkpt lat="48.40429" lon="6.88151">
        <ele>420</ele>
        <time>2018-10-07T10:22:12+02:00</time>
      </trkpt>
      <trkpt lat="48.40437" lon="6.88179">
        <ele>421</ele>
        <time>2018-10-07T10:22:27+02:00</time>
      </trkpt>
      <trkpt lat="48.4046" lon="6.88205">
        <ele>420</ele>
        <time>2018-10-07T10:22:47+02:00</time>
      </trkpt>
      <trkpt lat="48.40471" lon="6.88214">
        <ele>419</ele>
        <time>2018-10-07T10:22:56+02:00</time>
      </trkpt>
      <trkpt lat="48.40472" lon="6.88215">
        <ele>419</ele>
        <time>2018-10-07T10:22:57+02:00</time>
      </trkpt>
      <trkpt lat="48.40473" lon="6.88216">
        <ele>419</ele>
        <time>2018-10-07T10:22:58+02:00</time>
      </trkpt>
      <trkpt lat="48.40475" lon="6.88217">
        <ele>418</ele>
        <time>2018-10-07T10:22:59+02:00</time>
      </trkpt>
      <trkpt lat="48.40476" lon="6.88218">
        <ele>418</ele>
        <time>2018-10-07T10:23:00+02:00</time>
      </trkpt>
      <trkpt lat="48.40477" lon="6.88219">
        <ele>418</ele>
        <time>2018-10-07T10:23:01+02:00</time>
      </trkpt>
      <trkpt lat="48.40478" lon="6.8822">
        <ele>418</ele>
        <time>2018-10-07T10:23:02+02:00</time>
      </trkpt>
      <trkpt lat="48.4048" lon="6.88223">
        <ele>418</ele>
        <time>2018-10-07T10:23:05+02:00</time>
      </trkpt>
      <trkpt lat="48.40481" lon="6.88224">
        <ele>418</ele>
        <time>2018-10-07T10:23:06+02:00</time>
      </trkpt>
      <trkpt lat="48.40482" lon="6.88225">
        <ele>418</ele>
        <time>2018-10-07T10:23:07+02:00</time>
      </trkpt>
      <trkpt lat="48.40483" lon="6.88226">
        <ele>418</ele>
        <time>2018-10-07T10:23:08+02:00</time>
      </trkpt>
      <trkpt lat="48.40484" lon="6.88227">
        <ele>417</ele>
        <time>2018-10-07T10:23:09+02:00</time>
      </trkpt>
      <trkpt lat="48.40498" lon="6.88244">
        <ele>416</ele>
        <time>2018-10-07T10:23:25+02:00</time>
      </trkpt>
      <trkpt lat="48.40504" lon="6.88254">
        <ele>416</ele>
        <time>2018-10-07T10:23:33+02:00</time>
      </trkpt>
      <trkpt lat="48.40506" lon="6.88259">
        <ele>416</ele>
        <time>2018-10-07T10:23:36+02:00</time>
      </trkpt>
      <trkpt lat="48.40507" lon="6.8826">
        <ele>416</ele>
        <time>2018-10-07T10:23:37+02:00</time>
      </trkpt>
      <trkpt lat="48.40508" lon="6.88261">
        <ele>416</ele>
        <time>2018-10-07T10:23:38+02:00</time>
      </trkpt>
      <trkpt lat="48.40509" lon="6.88262">
        <ele>416</ele>
        <time>2018-10-07T10:23:39+02:00</time>
      </trkpt>
      <trkpt lat="48.4051" lon="6.88264">
        <ele>416</ele>
        <time>2018-10-07T10:23:40+02:00</time>
      </trkpt>
      <trkpt lat="48.40511" lon="6.88265">
        <ele>416</ele>
        <time>2018-10-07T10:23:41+02:00</time>
      </trkpt>
      <trkpt lat="48.40513" lon="6.88266">
        <ele>416</ele>
        <time>2018-10-07T10:23:42+02:00</time>
      </trkpt>
      <trkpt lat="48.40514" lon="6.88268">
        <ele>416</ele>
        <time>2018-10-07T10:23:43+02:00</time>
      </trkpt>
      <trkpt lat="48.40517" lon="6.88272">
        <ele>416</ele>
        <time>2018-10-07T10:23:47+02:00</time>
      </trkpt>
      <trkpt lat="48.40518" lon="6.88273">
        <ele>416</ele>
        <time>2018-10-07T10:23:48+02:00</time>
      </trkpt>
      <trkpt lat="48.40519" lon="6.88275">
        <ele>416</ele>
        <time>2018-10-07T10:23:49+02:00</time>
      </trkpt>
      <trkpt lat="48.4052" lon="6.88276">
        <ele>416</ele>
        <time>2018-10-07T10:23:50+02:00</time>
      </trkpt>
      <trkpt lat="48.40523" lon="6.88281">
        <ele>416</ele>
        <time>2018-10-07T10:23:54+02:00</time>
      </trkpt>
      <trkpt lat="48.40523" lon="6.88282">
        <ele>417</ele>
        <time>2018-10-07T10:23:55+02:00</time>
      </trkpt>
      <trkpt lat="48.40524" lon="6.88284">
        <ele>417</ele>
        <time>2018-10-07T10:23:56+02:00</time>
      </trkpt>
      <trkpt lat="48.40535" lon="6.88306">
        <ele>417</ele>
        <time>2018-10-07T10:24:13+02:00</time>
      </trkpt>
      <trkpt lat="48.40544" lon="6.88327">
        <ele>418</ele>
        <time>2018-10-07T10:24:29+02:00</time>
      </trkpt>
      <trkpt lat="48.40549" lon="6.88336">
        <ele>418</ele>
        <time>2018-10-07T10:24:36+02:00</time>
      </trkpt>
      <trkpt lat="48.4055" lon="6.88337">
        <ele>418</ele>
        <time>2018-10-07T10:24:37+02:00</time>
      </trkpt>
      <trkpt lat="48.40551" lon="6.88338">
        <ele>418</ele>
        <time>2018-10-07T10:24:38+02:00</time>
      </trkpt>
      <trkpt lat="48.40564" lon="6.88361">
        <ele>418</ele>
        <time>2018-10-07T10:24:54+02:00</time>
      </trkpt>
      <trkpt lat="48.40577" lon="6.88387">
        <ele>417</ele>
        <time>2018-10-07T10:25:12+02:00</time>
      </trkpt>
      <trkpt lat="48.40586" lon="6.88409">
        <ele>417</ele>
        <time>2018-10-07T10:25:27+02:00</time>
      </trkpt>
      <trkpt lat="48.40588" lon="6.88415">
        <ele>417</ele>
        <time>2018-10-07T10:25:30+02:00</time>
      </trkpt>
      <trkpt lat="48.40589" lon="6.88417">
        <ele>417</ele>
        <time>2018-10-07T10:25:31+02:00</time>
      </trkpt>
      <trkpt lat="48.4059" lon="6.88418">
        <ele>417</ele>
        <time>2018-10-07T10:25:32+02:00</time>
      </trkpt>
      <trkpt lat="48.40591" lon="6.8842">
        <ele>417</ele>
        <time>2018-10-07T10:25:33+02:00</time>
      </trkpt>
      <trkpt lat="48.40591" lon="6.88422">
        <ele>417</ele>
        <time>2018-10-07T10:25:34+02:00</time>
      </trkpt>
      <trkpt lat="48.40599" lon="6.88446">
        <ele>418</ele>
        <time>2018-10-07T10:25:49+02:00</time>
      </trkpt>
      <trkpt lat="48.40606" lon="6.88467">
        <ele>418</ele>
        <time>2018-10-07T10:26:01+02:00</time>
      </trkpt>
      <trkpt lat="48.40606" lon="6.88469">
        <ele>418</ele>
        <time>2018-10-07T10:26:02+02:00</time>
      </trkpt>
      <trkpt lat="48.40606" lon="6.88471">
        <ele>419</ele>
        <time>2018-10-07T10:26:03+02:00</time>
      </trkpt>
      <trkpt lat="48.40607" lon="6.88472">
        <ele>419</ele>
        <time>2018-10-07T10:26:04+02:00</time>
      </trkpt>
      <trkpt lat="48.40607" lon="6.88474">
        <ele>419</ele>
        <time>2018-10-07T10:26:05+02:00</time>
      </trkpt>
      <trkpt lat="48.40607" lon="6.88476">
        <ele>419</ele>
        <time>2018-10-07T10:26:06+02:00</time>
      </trkpt>
      <trkpt lat="48.40608" lon="6.88478">
        <ele>419</ele>
        <time>2018-10-07T10:26:07+02:00</time>
      </trkpt>
      <trkpt lat="48.40608" lon="6.88479">
        <ele>419</ele>
        <time>2018-10-07T10:26:08+02:00</time>
      </trkpt>
      <trkpt lat="48.40608" lon="6.88481">
        <ele>419</ele>
        <time>2018-10-07T10:26:09+02:00</time>
      </trkpt>
      <trkpt lat="48.40609" lon="6.88483">
        <ele>419</ele>
        <time>2018-10-07T10:26:10+02:00</time>
      </trkpt>
      <trkpt lat="48.40609" lon="6.88484">
        <ele>419</ele>
        <time>2018-10-07T10:26:11+02:00</time>
      </trkpt>
      <trkpt lat="48.4061" lon="6.88492">
        <ele>420</ele>
        <time>2018-10-07T10:26:15+02:00</time>
      </trkpt>
      <trkpt lat="48.4061" lon="6.88494">
        <ele>420</ele>
        <time>2018-10-07T10:26:16+02:00</time>
      </trkpt>
      <trkpt lat="48.40611" lon="6.88496">
        <ele>420</ele>
        <time>2018-10-07T10:26:17+02:00</time>
      </trkpt>
      <trkpt lat="48.40611" lon="6.88498">
        <ele>420</ele>
        <time>2018-10-07T10:26:18+02:00</time>
      </trkpt>
      <trkpt lat="48.40611" lon="6.88499">
        <ele>421</ele>
        <time>2018-10-07T10:26:19+02:00</time>
      </trkpt>
      <trkpt lat="48.40612" lon="6.88508">
        <ele>421</ele>
        <time>2018-10-07T10:26:24+02:00</time>
      </trkpt>
      <trkpt lat="48.40613" lon="6.8851">
        <ele>421</ele>
        <time>2018-10-07T10:26:25+02:00</time>
      </trkpt>
      <trkpt lat="48.40613" lon="6.88511">
        <ele>421</ele>
        <time>2018-10-07T10:26:26+02:00</time>
      </trkpt>
      <trkpt lat="48.40614" lon="6.88522">
        <ele>421</ele>
        <time>2018-10-07T10:26:32+02:00</time>
      </trkpt>
      <trkpt lat="48.40614" lon="6.88523">
        <ele>421</ele>
        <time>2018-10-07T10:26:33+02:00</time>
      </trkpt>
      <trkpt lat="48.40614" lon="6.88525">
        <ele>421</ele>
        <time>2018-10-07T10:26:34+02:00</time>
      </trkpt>
      <trkpt lat="48.40614" lon="6.88526">
        <ele>421</ele>
        <time>2018-10-07T10:26:35+02:00</time>
      </trkpt>
      <trkpt lat="48.40614" lon="6.88528">
        <ele>422</ele>
        <time>2018-10-07T10:26:36+02:00</time>
      </trkpt>
      <trkpt lat="48.40614" lon="6.88529">
        <ele>422</ele>
        <time>2018-10-07T10:26:37+02:00</time>
      </trkpt>
      <trkpt lat="48.40615" lon="6.88545">
        <ele>422</ele>
        <time>2018-10-07T10:26:46+02:00</time>
      </trkpt>
      <trkpt lat="48.40616" lon="6.88547">
        <ele>422</ele>
        <time>2018-10-07T10:26:47+02:00</time>
      </trkpt>
      <trkpt lat="48.40616" lon="6.88549">
        <ele>422</ele>
        <time>2018-10-07T10:26:48+02:00</time>
      </trkpt>
      <trkpt lat="48.40616" lon="6.88551">
        <ele>422</ele>
        <time>2018-10-07T10:26:49+02:00</time>
      </trkpt>
      <trkpt lat="48.40616" lon="6.88553">
        <ele>423</ele>
        <time>2018-10-07T10:26:50+02:00</time>
      </trkpt>
      <trkpt lat="48.40616" lon="6.88554">
        <ele>423</ele>
        <time>2018-10-07T10:26:51+02:00</time>
      </trkpt>
      <trkpt lat="48.40617" lon="6.88561">
        <ele>423</ele>
        <time>2018-10-07T10:26:55+02:00</time>
      </trkpt>
      <trkpt lat="48.40617" lon="6.88562">
        <ele>423</ele>
        <time>2018-10-07T10:26:56+02:00</time>
      </trkpt>
      <trkpt lat="48.40617" lon="6.88564">
        <ele>423</ele>
        <time>2018-10-07T10:26:57+02:00</time>
      </trkpt>
      <trkpt lat="48.40623" lon="6.88588">
        <ele>422</ele>
        <time>2018-10-07T10:27:12+02:00</time>
      </trkpt>
      <trkpt lat="48.40626" lon="6.88603">
        <ele>421</ele>
        <time>2018-10-07T10:27:21+02:00</time>
      </trkpt>
      <trkpt lat="48.40626" lon="6.88606">
        <ele>421</ele>
        <time>2018-10-07T10:27:22+02:00</time>
      </trkpt>
      <trkpt lat="48.40626" lon="6.88608">
        <ele>421</ele>
        <time>2018-10-07T10:27:23+02:00</time>
      </trkpt>
      <trkpt lat="48.40626" lon="6.88609">
        <ele>420</ele>
        <time>2018-10-07T10:27:24+02:00</time>
      </trkpt>
      <trkpt lat="48.40626" lon="6.88622">
        <ele>420</ele>
        <time>2018-10-07T10:27:32+02:00</time>
      </trkpt>
      <trkpt lat="48.40626" lon="6.88624">
        <ele>420</ele>
        <time>2018-10-07T10:27:33+02:00</time>
      </trkpt>
      <trkpt lat="48.40626" lon="6.88626">
        <ele>420</ele>
        <time>2018-10-07T10:27:34+02:00</time>
      </trkpt>
      <trkpt lat="48.40626" lon="6.88628">
        <ele>420</ele>
        <time>2018-10-07T10:27:35+02:00</time>
      </trkpt>
      <trkpt lat="48.40626" lon="6.8863">
        <ele>420</ele>
        <time>2018-10-07T10:27:36+02:00</time>
      </trkpt>
      <trkpt lat="48.40624" lon="6.88643">
        <ele>421</ele>
        <time>2018-10-07T10:27:44+02:00</time>
      </trkpt>
      <trkpt lat="48.40623" lon="6.88645">
        <ele>421</ele>
        <time>2018-10-07T10:27:45+02:00</time>
      </trkpt>
      <trkpt lat="48.40623" lon="6.88647">
        <ele>421</ele>
        <time>2018-10-07T10:27:46+02:00</time>
      </trkpt>
      <trkpt lat="48.40616" lon="6.88665">
        <ele>423</ele>
        <time>2018-10-07T10:27:59+02:00</time>
      </trkpt>
      <trkpt lat="48.40614" lon="6.88668">
        <ele>423</ele>
        <time>2018-10-07T10:28:01+02:00</time>
      </trkpt>
      <trkpt lat="48.40613" lon="6.88673">
        <ele>423</ele>
        <time>2018-10-07T10:28:04+02:00</time>
      </trkpt>
      <trkpt lat="48.40598" lon="6.88684">
        <ele>426</ele>
        <time>2018-10-07T10:28:20+02:00</time>
      </trkpt>
      <trkpt lat="48.40585" lon="6.88695">
        <ele>428</ele>
        <time>2018-10-07T10:28:32+02:00</time>
      </trkpt>
      <trkpt lat="48.40568" lon="6.8871">
        <ele>430</ele>
        <time>2018-10-07T10:28:48+02:00</time>
      </trkpt>
      <trkpt lat="48.40553" lon="6.88732">
        <ele>430</ele>
        <time>2018-10-07T10:29:00+02:00</time>
      </trkpt>
      <trkpt lat="48.40552" lon="6.88734">
        <ele>430</ele>
        <time>2018-10-07T10:29:01+02:00</time>
      </trkpt>
      <trkpt lat="48.40551" lon="6.88735">
        <ele>430</ele>
        <time>2018-10-07T10:29:02+02:00</time>
      </trkpt>
      <trkpt lat="48.4055" lon="6.88736">
        <ele>430</ele>
        <time>2018-10-07T10:29:03+02:00</time>
      </trkpt>
      <trkpt lat="48.40548" lon="6.88739">
        <ele>430</ele>
        <time>2018-10-07T10:29:05+02:00</time>
      </trkpt>
      <trkpt lat="48.40539" lon="6.88754">
        <ele>429</ele>
        <time>2018-10-07T10:29:16+02:00</time>
      </trkpt>
      <trkpt lat="48.40527" lon="6.88777">
        <ele>429</ele>
        <time>2018-10-07T10:29:33+02:00</time>
      </trkpt>
      <trkpt lat="48.40522" lon="6.8879">
        <ele>429</ele>
        <time>2018-10-07T10:29:40+02:00</time>
      </trkpt>
      <trkpt lat="48.40529" lon="6.88816">
        <ele>422</ele>
        <time>2018-10-07T10:29:55+02:00</time>
      </trkpt>
      <trkpt lat="48.40533" lon="6.88819">
        <ele>421</ele>
        <time>2018-10-07T10:29:58+02:00</time>
      </trkpt>
      <trkpt lat="48.40537" lon="6.88825">
        <ele>418</ele>
        <time>2018-10-07T10:30:03+02:00</time>
      </trkpt>
      <trkpt lat="48.40544" lon="6.88834">
        <ele>414</ele>
        <time>2018-10-07T10:30:10+02:00</time>
      </trkpt>
      <trkpt lat="48.40555" lon="6.8883">
        <ele>411</ele>
        <time>2018-10-07T10:30:17+02:00</time>
      </trkpt>
      <trkpt lat="48.40554" lon="6.88816">
        <ele>413</ele>
        <time>2018-10-07T10:30:27+02:00</time>
      </trkpt>
      <trkpt lat="48.40556" lon="6.88787">
        <ele>418</ele>
        <time>2018-10-07T10:30:43+02:00</time>
      </trkpt>
      <trkpt lat="48.4057" lon="6.88772">
        <ele>417</ele>
        <time>2018-10-07T10:31:04+02:00</time>
      </trkpt>
      <trkpt lat="48.40593" lon="6.88765">
        <ele>411</ele>
        <time>2018-10-07T10:31:25+02:00</time>
      </trkpt>
      <trkpt lat="48.40607" lon="6.88768">
        <ele>407</ele>
        <time>2018-10-07T10:31:37+02:00</time>
      </trkpt>
      <trkpt lat="48.4063" lon="6.88773">
        <ele>400</ele>
        <time>2018-10-07T10:31:54+02:00</time>
      </trkpt>
      <trkpt lat="48.40653" lon="6.88775">
        <ele>394</ele>
        <time>2018-10-07T10:32:08+02:00</time>
      </trkpt>
      <trkpt lat="48.40678" lon="6.88787">
        <ele>386</ele>
        <time>2018-10-07T10:32:24+02:00</time>
      </trkpt>
      <trkpt lat="48.40693" lon="6.888">
        <ele>380</ele>
        <time>2018-10-07T10:32:38+02:00</time>
      </trkpt>
      <trkpt lat="48.40707" lon="6.88811">
        <ele>376</ele>
        <time>2018-10-07T10:32:53+02:00</time>
      </trkpt>
      <trkpt lat="48.40717" lon="6.88813">
        <ele>373</ele>
        <time>2018-10-07T10:33:04+02:00</time>
      </trkpt>
      <trkpt lat="48.40732" lon="6.88809">
        <ele>370</ele>
        <time>2018-10-07T10:33:16+02:00</time>
      </trkpt>
      <trkpt lat="48.40745" lon="6.88797">
        <ele>368</ele>
        <time>2018-10-07T10:33:30+02:00</time>
      </trkpt>
      <trkpt lat="48.40758" lon="6.88793">
        <ele>367</ele>
        <time>2018-10-07T10:33:41+02:00</time>
      </trkpt>
      <trkpt lat="48.40778" lon="6.88804">
        <ele>365</ele>
        <time>2018-10-07T10:33:58+02:00</time>
      </trkpt>
      <trkpt lat="48.40795" lon="6.8882">
        <ele>363</ele>
        <time>2018-10-07T10:34:14+02:00</time>
      </trkpt>
      <trkpt lat="48.40799" lon="6.88823">
        <ele>363</ele>
        <time>2018-10-07T10:34:22+02:00</time>
      </trkpt>
      <trkpt lat="48.40809" lon="6.88832">
        <ele>362</ele>
        <time>2018-10-07T10:34:35+02:00</time>
      </trkpt>
      <trkpt lat="48.40818" lon="6.88838">
        <ele>361</ele>
        <time>2018-10-07T10:34:46+02:00</time>
      </trkpt>
      <trkpt lat="48.4083" lon="6.88841">
        <ele>360</ele>
        <time>2018-10-07T10:34:59+02:00</time>
      </trkpt>
      <trkpt lat="48.40834" lon="6.88842">
        <ele>360</ele>
        <time>2018-10-07T10:35:02+02:00</time>
      </trkpt>
      <trkpt lat="48.40844" lon="6.88839">
        <ele>361</ele>
        <time>2018-10-07T10:35:10+02:00</time>
      </trkpt>
      <trkpt lat="48.40855" lon="6.88835">
        <ele>361</ele>
        <time>2018-10-07T10:35:19+02:00</time>
      </trkpt>
      <trkpt lat="48.40873" lon="6.88829">
        <ele>362</ele>
        <time>2018-10-07T10:35:33+02:00</time>
      </trkpt>
      <trkpt lat="48.40874" lon="6.88828">
        <ele>362</ele>
        <time>2018-10-07T10:35:34+02:00</time>
      </trkpt>
      <trkpt lat="48.40884" lon="6.88823">
        <ele>362</ele>
        <time>2018-10-07T10:35:49+02:00</time>
      </trkpt>
      <trkpt lat="48.40884" lon="6.88823">
        <ele>362</ele>
        <time>2018-10-07T10:35:50+02:00</time>
      </trkpt>
      <trkpt lat="48.40893" lon="6.88824">
        <ele>363</ele>
        <time>2018-10-07T10:36:15+02:00</time>
      </trkpt>
      <trkpt lat="48.40895" lon="6.88823">
        <ele>363</ele>
        <time>2018-10-07T10:36:40+02:00</time>
      </trkpt>
      <trkpt lat="48.40897" lon="6.88822">
        <ele>363</ele>
        <time>2018-10-07T10:37:00+02:00</time>
      </trkpt>
      <trkpt lat="48.40899" lon="6.8882">
        <ele>363</ele>
        <time>2018-10-07T10:37:04+02:00</time>
      </trkpt>
      <trkpt lat="48.40905" lon="6.88812">
        <ele>363</ele>
        <time>2018-10-07T10:37:12+02:00</time>
      </trkpt>
      <trkpt lat="48.4092" lon="6.88797">
        <ele>363</ele>
        <time>2018-10-07T10:37:26+02:00</time>
      </trkpt>
      <trkpt lat="48.40935" lon="6.88775">
        <ele>363</ele>
        <time>2018-10-07T10:37:41+02:00</time>
      </trkpt>
      <trkpt lat="48.40948" lon="6.88758">
        <ele>364</ele>
        <time>2018-10-07T10:37:55+02:00</time>
      </trkpt>
      <trkpt lat="48.40955" lon="6.88751">
        <ele>364</ele>
        <time>2018-10-07T10:38:08+02:00</time>
      </trkpt>
      <trkpt lat="48.40956" lon="6.88749">
        <ele>364</ele>
        <time>2018-10-07T10:38:10+02:00</time>
      </trkpt>
      <trkpt lat="48.40958" lon="6.88739">
        <ele>364</ele>
        <time>2018-10-07T10:38:23+02:00</time>
      </trkpt>
      <trkpt lat="48.40968" lon="6.88727">
        <ele>364</ele>
        <time>2018-10-07T10:38:34+02:00</time>
      </trkpt>
      <trkpt lat="48.40973" lon="6.8872">
        <ele>364</ele>
        <time>2018-10-07T10:38:40+02:00</time>
      </trkpt>
      <trkpt lat="48.40982" lon="6.88712">
        <ele>365</ele>
        <time>2018-10-07T10:38:49+02:00</time>
      </trkpt>
      <trkpt lat="48.40986" lon="6.88708">
        <ele>365</ele>
        <time>2018-10-07T10:38:54+02:00</time>
      </trkpt>
      <trkpt lat="48.40994" lon="6.88702">
        <ele>366</ele>
        <time>2018-10-07T10:39:02+02:00</time>
      </trkpt>
      <trkpt lat="48.40999" lon="6.88697">
        <ele>366</ele>
        <time>2018-10-07T10:39:08+02:00</time>
      </trkpt>
      <trkpt lat="48.41013" lon="6.8869">
        <ele>367</ele>
        <time>2018-10-07T10:39:20+02:00</time>
      </trkpt>
      <trkpt lat="48.41024" lon="6.88681">
        <ele>368</ele>
        <time>2018-10-07T10:39:31+02:00</time>
      </trkpt>
      <trkpt lat="48.41026" lon="6.88679">
        <ele>368</ele>
        <time>2018-10-07T10:39:33+02:00</time>
      </trkpt>
      <trkpt lat="48.41044" lon="6.88665">
        <ele>369</ele>
        <time>2018-10-07T10:39:49+02:00</time>
      </trkpt>
      <trkpt lat="48.41048" lon="6.88663">
        <ele>369</ele>
        <time>2018-10-07T10:39:52+02:00</time>
      </trkpt>
      <trkpt lat="48.41054" lon="6.8866">
        <ele>369</ele>
        <time>2018-10-07T10:39:56+02:00</time>
      </trkpt>
      <trkpt lat="48.41065" lon="6.88652">
        <ele>369</ele>
        <time>2018-10-07T10:40:07+02:00</time>
      </trkpt>
      <trkpt lat="48.41085" lon="6.88641">
        <ele>369</ele>
        <time>2018-10-07T10:40:23+02:00</time>
      </trkpt>
      <trkpt lat="48.41102" lon="6.88629">
        <ele>366</ele>
        <time>2018-10-07T10:40:37+02:00</time>
      </trkpt>
      <trkpt lat="48.41128" lon="6.88619">
        <ele>361</ele>
        <time>2018-10-07T10:40:53+02:00</time>
      </trkpt>
      <trkpt lat="48.4114" lon="6.88631">
        <ele>360</ele>
        <time>2018-10-07T10:41:05+02:00</time>
      </trkpt>
      <trkpt lat="48.41147" lon="6.88641">
        <ele>359</ele>
        <time>2018-10-07T10:41:14+02:00</time>
      </trkpt>
      <trkpt lat="48.41158" lon="6.88658">
        <ele>357</ele>
        <time>2018-10-07T10:41:30+02:00</time>
      </trkpt>
      <trkpt lat="48.41163" lon="6.88668">
        <ele>357</ele>
        <time>2018-10-07T10:41:37+02:00</time>
      </trkpt>
      <trkpt lat="48.4117" lon="6.8868">
        <ele>356</ele>
        <time>2018-10-07T10:41:46+02:00</time>
      </trkpt>
      <trkpt lat="48.41189" lon="6.88692">
        <ele>354</ele>
        <time>2018-10-07T10:42:06+02:00</time>
      </trkpt>
      <trkpt lat="48.41215" lon="6.88695">
        <ele>351</ele>
        <time>2018-10-07T10:42:26+02:00</time>
      </trkpt>
      <trkpt lat="48.4123" lon="6.8871">
        <ele>349</ele>
        <time>2018-10-07T10:42:46+02:00</time>
      </trkpt>
      <trkpt lat="48.41247" lon="6.88736">
        <ele>346</ele>
        <time>2018-10-07T10:43:05+02:00</time>
      </trkpt>
      <trkpt lat="48.41261" lon="6.88753">
        <ele>345</ele>
        <time>2018-10-07T10:43:20+02:00</time>
      </trkpt>
      <trkpt lat="48.41273" lon="6.8876">
        <ele>344</ele>
        <time>2018-10-07T10:43:38+02:00</time>
      </trkpt>
      <trkpt lat="48.41283" lon="6.88779">
        <ele>343</ele>
        <time>2018-10-07T10:43:58+02:00</time>
      </trkpt>
      <trkpt lat="48.41298" lon="6.88779">
        <ele>341</ele>
        <time>2018-10-07T10:44:17+02:00</time>
      </trkpt>
      <trkpt lat="48.41315" lon="6.8878">
        <ele>339</ele>
        <time>2018-10-07T10:44:37+02:00</time>
      </trkpt>
      <trkpt lat="48.4132" lon="6.88778">
        <ele>339</ele>
        <time>2018-10-07T10:44:42+02:00</time>
      </trkpt>
      <trkpt lat="48.41335" lon="6.88782">
        <ele>337</ele>
        <time>2018-10-07T10:44:59+02:00</time>
      </trkpt>
      <trkpt lat="48.41347" lon="6.88794">
        <ele>336</ele>
        <time>2018-10-07T10:45:20+02:00</time>
      </trkpt>
      <trkpt lat="48.41357" lon="6.88796">
        <ele>335</ele>
        <time>2018-10-07T10:45:31+02:00</time>
      </trkpt>
      <trkpt lat="48.41402" lon="6.88804">
        <ele>330</ele>
        <time>2018-10-07T10:45:44+02:00</time>
      </trkpt>
      <trkpt lat="48.4142" lon="6.88804">
        <ele>328</ele>
        <time>2018-10-07T10:45:52+02:00</time>
      </trkpt>
      <trkpt lat="48.41429" lon="6.88806">
        <ele>327</ele>
        <time>2018-10-07T10:45:56+02:00</time>
      </trkpt>
      <trkpt lat="48.41451" lon="6.88814">
        <ele>326</ele>
        <time>2018-10-07T10:46:07+02:00</time>
      </trkpt>
      <trkpt lat="48.41478" lon="6.88821">
        <ele>325</ele>
        <time>2018-10-07T10:46:23+02:00</time>
      </trkpt>
      <trkpt lat="48.41491" lon="6.88832">
        <ele>324</ele>
        <time>2018-10-07T10:46:47+02:00</time>
      </trkpt>
      <trkpt lat="48.41502" lon="6.88849">
        <ele>324</ele>
        <time>2018-10-07T10:47:06+02:00</time>
      </trkpt>
      <trkpt lat="48.41506" lon="6.88854">
        <ele>323</ele>
        <time>2018-10-07T10:47:11+02:00</time>
      </trkpt>
      <trkpt lat="48.41514" lon="6.88851">
        <ele>323</ele>
        <time>2018-10-07T10:47:28+02:00</time>
      </trkpt>
      <trkpt lat="48.41514" lon="6.88821">
        <ele>322</ele>
        <time>2018-10-07T10:47:47+02:00</time>
      </trkpt>
      <trkpt lat="48.41523" lon="6.88811">
        <ele>321</ele>
        <time>2018-10-07T10:47:53+02:00</time>
      </trkpt>
      <trkpt lat="48.41527" lon="6.88808">
        <ele>320</ele>
        <time>2018-10-07T10:47:55+02:00</time>
      </trkpt>
      <trkpt lat="48.41552" lon="6.88799">
        <ele>318</ele>
        <time>2018-10-07T10:48:09+02:00</time>
      </trkpt>
      <trkpt lat="48.41563" lon="6.88797">
        <ele>317</ele>
        <time>2018-10-07T10:48:16+02:00</time>
      </trkpt>
      <trkpt lat="48.4158" lon="6.888">
        <ele>315</ele>
        <time>2018-10-07T10:48:25+02:00</time>
      </trkpt>
      <trkpt lat="48.41597" lon="6.8881">
        <ele>314</ele>
        <time>2018-10-07T10:48:36+02:00</time>
      </trkpt>
      <trkpt lat="48.41619" lon="6.88822">
        <ele>313</ele>
        <time>2018-10-07T10:48:49+02:00</time>
      </trkpt>
      <trkpt lat="48.41635" lon="6.88832">
        <ele>311</ele>
        <time>2018-10-07T10:49:01+02:00</time>
      </trkpt>
      <trkpt lat="48.41646" lon="6.88839">
        <ele>310</ele>
        <time>2018-10-07T10:49:13+02:00</time>
      </trkpt>
      <trkpt lat="48.41651" lon="6.88839">
        <ele>310</ele>
        <time>2018-10-07T10:49:17+02:00</time>
      </trkpt>
      <trkpt lat="48.41657" lon="6.88834">
        <ele>309</ele>
        <time>2018-10-07T10:49:23+02:00</time>
      </trkpt>
      <trkpt lat="48.41657" lon="6.8881">
        <ele>308</ele>
        <time>2018-10-07T10:49:36+02:00</time>
      </trkpt>
      <trkpt lat="48.41657" lon="6.88806">
        <ele>308</ele>
        <time>2018-10-07T10:49:38+02:00</time>
      </trkpt>
      <trkpt lat="48.41648" lon="6.88772">
        <ele>308</ele>
        <time>2018-10-07T10:49:56+02:00</time>
      </trkpt>
      <trkpt lat="48.41639" lon="6.88737">
        <ele>308</ele>
        <time>2018-10-07T10:50:13+02:00</time>
      </trkpt>
      <trkpt lat="48.41629" lon="6.88704">
        <ele>308</ele>
        <time>2018-10-07T10:50:32+02:00</time>
      </trkpt>
      <trkpt lat="48.41626" lon="6.88668">
        <ele>308</ele>
        <time>2018-10-07T10:50:50+02:00</time>
      </trkpt>
      <trkpt lat="48.41626" lon="6.88642">
        <ele>307</ele>
        <time>2018-10-07T10:51:04+02:00</time>
      </trkpt>
      <trkpt lat="48.41627" lon="6.88635">
        <ele>307</ele>
        <time>2018-10-07T10:51:08+02:00</time>
      </trkpt>
      <trkpt lat="48.41627" lon="6.88623">
        <ele>306</ele>
        <time>2018-10-07T10:51:14+02:00</time>
      </trkpt>
      <trkpt lat="48.41629" lon="6.88595">
        <ele>305</ele>
        <time>2018-10-07T10:51:29+02:00</time>
      </trkpt>
      <trkpt lat="48.41631" lon="6.88547">
        <ele>304</ele>
        <time>2018-10-07T10:51:53+02:00</time>
      </trkpt>
      <trkpt lat="48.41631" lon="6.88532">
        <ele>304</ele>
        <time>2018-10-07T10:52:01+02:00</time>
      </trkpt>
      <trkpt lat="48.41628" lon="6.88518">
        <ele>304</ele>
        <time>2018-10-07T10:52:13+02:00</time>
      </trkpt>
      <trkpt lat="48.41621" lon="6.88494">
        <ele>305</ele>
        <time>2018-10-07T10:52:25+02:00</time>
      </trkpt>
      <trkpt lat="48.41619" lon="6.88488">
        <ele>305</ele>
        <time>2018-10-07T10:52:28+02:00</time>
      </trkpt>
      <trkpt lat="48.41618" lon="6.88484">
        <ele>305</ele>
        <time>2018-10-07T10:52:30+02:00</time>
      </trkpt>
      <trkpt lat="48.41609" lon="6.88441">
        <ele>304</ele>
        <time>2018-10-07T10:52:49+02:00</time>
      </trkpt>
      <trkpt lat="48.41606" lon="6.88427">
        <ele>304</ele>
        <time>2018-10-07T10:52:56+02:00</time>
      </trkpt>
      <trkpt lat="48.41596" lon="6.88397">
        <ele>305</ele>
        <time>2018-10-07T10:53:11+02:00</time>
      </trkpt>
      <trkpt lat="48.41595" lon="6.88381">
        <ele>305</ele>
        <time>2018-10-07T10:53:18+02:00</time>
      </trkpt>
      <trkpt lat="48.41595" lon="6.88349">
        <ele>304</ele>
        <time>2018-10-07T10:53:34+02:00</time>
      </trkpt>
      <trkpt lat="48.41601" lon="6.88317">
        <ele>304</ele>
        <time>2018-10-07T10:53:51+02:00</time>
      </trkpt>
      <trkpt lat="48.41604" lon="6.88281">
        <ele>304</ele>
        <time>2018-10-07T10:54:10+02:00</time>
      </trkpt>
      <trkpt lat="48.41607" lon="6.88251">
        <ele>304</ele>
        <time>2018-10-07T10:54:25+02:00</time>
      </trkpt>
      <trkpt lat="48.4161" lon="6.88246">
        <ele>304</ele>
        <time>2018-10-07T10:54:28+02:00</time>
      </trkpt>
      <trkpt lat="48.41611" lon="6.88219">
        <ele>304</ele>
        <time>2018-10-07T10:54:41+02:00</time>
      </trkpt>
      <trkpt lat="48.4161" lon="6.88213">
        <ele>304</ele>
        <time>2018-10-07T10:54:44+02:00</time>
      </trkpt>
      <trkpt lat="48.41605" lon="6.88188">
        <ele>304</ele>
        <time>2018-10-07T10:54:59+02:00</time>
      </trkpt>
      <trkpt lat="48.41608" lon="6.88183">
        <ele>304</ele>
        <time>2018-10-07T10:55:02+02:00</time>
      </trkpt>
      <trkpt lat="48.41614" lon="6.88172">
        <ele>304</ele>
        <time>2018-10-07T10:55:10+02:00</time>
      </trkpt>
      <trkpt lat="48.4163" lon="6.88148">
        <ele>302</ele>
        <time>2018-10-07T10:55:23+02:00</time>
      </trkpt>
      <trkpt lat="48.41633" lon="6.88132">
        <ele>302</ele>
        <time>2018-10-07T10:55:32+02:00</time>
      </trkpt>
      <trkpt lat="48.41636" lon="6.88121">
        <ele>301</ele>
        <time>2018-10-07T10:55:38+02:00</time>
      </trkpt>
      <trkpt lat="48.41642" lon="6.88088">
        <ele>300</ele>
        <time>2018-10-07T10:55:56+02:00</time>
      </trkpt>
      <trkpt lat="48.41649" lon="6.88045">
        <ele>299</ele>
        <time>2018-10-07T10:56:19+02:00</time>
      </trkpt>
      <trkpt lat="48.41649" lon="6.8803">
        <ele>298</ele>
        <time>2018-10-07T10:56:27+02:00</time>
      </trkpt>
      <trkpt lat="48.4165" lon="6.88026">
        <ele>298</ele>
        <time>2018-10-07T10:56:29+02:00</time>
      </trkpt>
      <trkpt lat="48.41653" lon="6.88003">
        <ele>298</ele>
        <time>2018-10-07T10:56:43+02:00</time>
      </trkpt>
      <trkpt lat="48.41653" lon="6.87996">
        <ele>298</ele>
        <time>2018-10-07T10:56:47+02:00</time>
      </trkpt>
      <trkpt lat="48.41657" lon="6.87981">
        <ele>297</ele>
        <time>2018-10-07T10:56:58+02:00</time>
      </trkpt>
      <trkpt lat="48.41653" lon="6.87978">
        <ele>297</ele>
        <time>2018-10-07T10:57:06+02:00</time>
      </trkpt>
      <trkpt lat="48.41653" lon="6.87953">
        <ele>297</ele>
        <time>2018-10-07T10:57:18+02:00</time>
      </trkpt>
      <trkpt lat="48.41659" lon="6.87918">
        <ele>296</ele>
        <time>2018-10-07T10:57:37+02:00</time>
      </trkpt>
      <trkpt lat="48.4166" lon="6.87911">
        <ele>296</ele>
        <time>2018-10-07T10:57:41+02:00</time>
      </trkpt>
      <trkpt lat="48.41658" lon="6.87877">
        <ele>295</ele>
        <time>2018-10-07T10:57:58+02:00</time>
      </trkpt>
      <trkpt lat="48.41654" lon="6.8784">
        <ele>295</ele>
        <time>2018-10-07T10:58:17+02:00</time>
      </trkpt>
      <trkpt lat="48.41646" lon="6.87823">
        <ele>294</ele>
        <time>2018-10-07T10:58:28+02:00</time>
      </trkpt>
      <trkpt lat="48.41642" lon="6.87814">
        <ele>294</ele>
        <time>2018-10-07T10:58:32+02:00</time>
      </trkpt>
      <trkpt lat="48.41626" lon="6.87801">
        <ele>293</ele>
        <time>2018-10-07T10:58:47+02:00</time>
      </trkpt>
      <trkpt lat="48.41611" lon="6.87788">
        <ele>292</ele>
        <time>2018-10-07T10:59:01+02:00</time>
      </trkpt>
      <trkpt lat="48.41589" lon="6.87781">
        <ele>291</ele>
        <time>2018-10-07T10:59:17+02:00</time>
      </trkpt>
      <trkpt lat="48.41576" lon="6.87781">
        <ele>291</ele>
        <time>2018-10-07T10:59:26+02:00</time>
      </trkpt>
      <trkpt lat="48.4155" lon="6.87785">
        <ele>291</ele>
        <time>2018-10-07T10:59:45+02:00</time>
      </trkpt>
      <trkpt lat="48.41525" lon="6.87791">
        <ele>291</ele>
        <time>2018-10-07T11:00:02+02:00</time>
      </trkpt>
      <trkpt lat="48.41495" lon="6.87787">
        <ele>291</ele>
        <time>2018-10-07T11:00:23+02:00</time>
      </trkpt>
      <trkpt lat="48.41477" lon="6.87766">
        <ele>291</ele>
        <time>2018-10-07T11:00:42+02:00</time>
      </trkpt>
      <trkpt lat="48.41475" lon="6.87756">
        <ele>291</ele>
        <time>2018-10-07T11:00:47+02:00</time>
      </trkpt>
      <trkpt lat="48.41475" lon="6.87749">
        <ele>290</ele>
        <time>2018-10-07T11:00:51+02:00</time>
      </trkpt>
      <trkpt lat="48.41469" lon="6.8771">
        <ele>291</ele>
        <time>2018-10-07T11:01:13+02:00</time>
      </trkpt>
      <trkpt lat="48.41459" lon="6.87684">
        <ele>291</ele>
        <time>2018-10-07T11:01:29+02:00</time>
      </trkpt>
      <trkpt lat="48.41451" lon="6.87658">
        <ele>291</ele>
        <time>2018-10-07T11:01:44+02:00</time>
      </trkpt>
      <trkpt lat="48.41447" lon="6.87628">
        <ele>291</ele>
        <time>2018-10-07T11:02:00+02:00</time>
      </trkpt>
      <trkpt lat="48.41449" lon="6.87631">
        <ele>291</ele>
        <time>2018-10-07T11:02:16+02:00</time>
      </trkpt>
      <trkpt lat="48.4145" lon="6.87628">
        <ele>291</ele>
        <time>2018-10-07T11:02:18+02:00</time>
      </trkpt>
      <trkpt lat="48.41458" lon="6.87605">
        <ele>292</ele>
        <time>2018-10-07T11:02:34+02:00</time>
      </trkpt>
      <trkpt lat="48.41461" lon="6.87599">
        <ele>292</ele>
        <time>2018-10-07T11:02:45+02:00</time>
      </trkpt>
      <trkpt lat="48.41463" lon="6.87595">
        <ele>292</ele>
        <time>2018-10-07T11:02:49+02:00</time>
      </trkpt>
      <trkpt lat="48.41466" lon="6.87584">
        <ele>292</ele>
        <time>2018-10-07T11:02:55+02:00</time>
      </trkpt>
      <trkpt lat="48.41469" lon="6.87572">
        <ele>292</ele>
        <time>2018-10-07T11:03:02+02:00</time>
      </trkpt>
      <trkpt lat="48.41467" lon="6.87562">
        <ele>292</ele>
        <time>2018-10-07T11:03:07+02:00</time>
      </trkpt>
      <trkpt lat="48.4146" lon="6.87541">
        <ele>292</ele>
        <time>2018-10-07T11:03:23+02:00</time>
      </trkpt>
      <trkpt lat="48.41459" lon="6.87534">
        <ele>292</ele>
        <time>2018-10-07T11:03:27+02:00</time>
      </trkpt>
      <trkpt lat="48.41461" lon="6.87506">
        <ele>292</ele>
        <time>2018-10-07T11:03:45+02:00</time>
      </trkpt>
      <trkpt lat="48.41458" lon="6.87497">
        <ele>292</ele>
        <time>2018-10-07T11:03:48+02:00</time>
      </trkpt>
      <trkpt lat="48.41452" lon="6.87472">
        <ele>292</ele>
        <time>2018-10-07T11:04:01+02:00</time>
      </trkpt>
      <trkpt lat="48.4144" lon="6.8745">
        <ele>291</ele>
        <time>2018-10-07T11:04:14+02:00</time>
      </trkpt>
      <trkpt lat="48.41423" lon="6.87438">
        <ele>291</ele>
        <time>2018-10-07T11:04:32+02:00</time>
      </trkpt>
      <trkpt lat="48.41419" lon="6.8743">
        <ele>290</ele>
        <time>2018-10-07T11:04:37+02:00</time>
      </trkpt>
      <trkpt lat="48.4141" lon="6.87405">
        <ele>290</ele>
        <time>2018-10-07T11:04:51+02:00</time>
      </trkpt>
      <trkpt lat="48.41406" lon="6.87393">
        <ele>290</ele>
        <time>2018-10-07T11:04:57+02:00</time>
      </trkpt>
      <trkpt lat="48.41403" lon="6.87387">
        <ele>290</ele>
        <time>2018-10-07T11:05:00+02:00</time>
      </trkpt>
      <trkpt lat="48.41402" lon="6.87374">
        <ele>290</ele>
        <time>2018-10-07T11:05:08+02:00</time>
      </trkpt>
      <trkpt lat="48.41402" lon="6.8735">
        <ele>290</ele>
        <time>2018-10-07T11:05:22+02:00</time>
      </trkpt>
      <trkpt lat="48.41402" lon="6.87337">
        <ele>290</ele>
        <time>2018-10-07T11:05:29+02:00</time>
      </trkpt>
      <trkpt lat="48.41405" lon="6.87302">
        <ele>290</ele>
        <time>2018-10-07T11:05:46+02:00</time>
      </trkpt>
      <trkpt lat="48.41403" lon="6.87281">
        <ele>290</ele>
        <time>2018-10-07T11:05:59+02:00</time>
      </trkpt>
      <trkpt lat="48.41381" lon="6.87265">
        <ele>290</ele>
        <time>2018-10-07T11:06:17+02:00</time>
      </trkpt>
      <trkpt lat="48.41373" lon="6.87247">
        <ele>290</ele>
        <time>2018-10-07T11:06:32+02:00</time>
      </trkpt>
      <trkpt lat="48.41375" lon="6.8722">
        <ele>289</ele>
        <time>2018-10-07T11:06:47+02:00</time>
      </trkpt>
      <trkpt lat="48.41377" lon="6.87181">
        <ele>289</ele>
        <time>2018-10-07T11:07:09+02:00</time>
      </trkpt>
      <trkpt lat="48.41361" lon="6.87168">
        <ele>288</ele>
        <time>2018-10-07T11:07:23+02:00</time>
      </trkpt>
      <trkpt lat="48.4135" lon="6.87173">
        <ele>288</ele>
        <time>2018-10-07T11:07:33+02:00</time>
      </trkpt>
      <trkpt lat="48.41341" lon="6.87183">
        <ele>288</ele>
        <time>2018-10-07T11:07:44+02:00</time>
      </trkpt>
      <trkpt lat="48.41325" lon="6.87184">
        <ele>288</ele>
        <time>2018-10-07T11:07:56+02:00</time>
      </trkpt>
      <trkpt lat="48.4131" lon="6.87175">
        <ele>288</ele>
        <time>2018-10-07T11:08:08+02:00</time>
      </trkpt>
      <trkpt lat="48.41305" lon="6.87157">
        <ele>288</ele>
        <time>2018-10-07T11:08:20+02:00</time>
      </trkpt>
      <trkpt lat="48.41305" lon="6.87154">
        <ele>288</ele>
        <time>2018-10-07T11:08:22+02:00</time>
      </trkpt>
      <trkpt lat="48.41301" lon="6.87129">
        <ele>288</ele>
        <time>2018-10-07T11:08:37+02:00</time>
      </trkpt>
      <trkpt lat="48.41302" lon="6.8712">
        <ele>288</ele>
        <time>2018-10-07T11:08:43+02:00</time>
      </trkpt>
      <trkpt lat="48.41309" lon="6.87093">
        <ele>288</ele>
        <time>2018-10-07T11:09:01+02:00</time>
      </trkpt>
      <trkpt lat="48.41316" lon="6.87077">
        <ele>288</ele>
        <time>2018-10-07T11:09:17+02:00</time>
      </trkpt>
      <trkpt lat="48.41321" lon="6.87068">
        <ele>288</ele>
        <time>2018-10-07T11:09:24+02:00</time>
      </trkpt>
      <trkpt lat="48.41324" lon="6.87042">
        <ele>288</ele>
        <time>2018-10-07T11:09:40+02:00</time>
      </trkpt>
      <trkpt lat="48.41324" lon="6.87034">
        <ele>288</ele>
        <time>2018-10-07T11:09:45+02:00</time>
      </trkpt>
      <trkpt lat="48.41326" lon="6.87009">
        <ele>288</ele>
        <time>2018-10-07T11:10:00+02:00</time>
      </trkpt>
      <trkpt lat="48.41326" lon="6.86972">
        <ele>289</ele>
        <time>2018-10-07T11:10:22+02:00</time>
      </trkpt>
      <trkpt lat="48.41324" lon="6.86935">
        <ele>290</ele>
        <time>2018-10-07T11:10:40+02:00</time>
      </trkpt>
      <trkpt lat="48.41322" lon="6.86911">
        <ele>291</ele>
        <time>2018-10-07T11:10:55+02:00</time>
      </trkpt>
      <trkpt lat="48.41314" lon="6.86882">
        <ele>291</ele>
        <time>2018-10-07T11:11:16+02:00</time>
      </trkpt>
      <trkpt lat="48.41296" lon="6.86845">
        <ele>291</ele>
        <time>2018-10-07T11:11:34+02:00</time>
      </trkpt>
      <trkpt lat="48.41273" lon="6.86824">
        <ele>291</ele>
        <time>2018-10-07T11:11:51+02:00</time>
      </trkpt>
      <trkpt lat="48.41254" lon="6.86821">
        <ele>290</ele>
        <time>2018-10-07T11:12:06+02:00</time>
      </trkpt>
      <trkpt lat="48.41253" lon="6.86821">
        <ele>290</ele>
        <time>2018-10-07T11:12:07+02:00</time>
      </trkpt>
      <trkpt lat="48.41249" lon="6.86819">
        <ele>290</ele>
        <time>2018-10-07T11:12:10+02:00</time>
      </trkpt>
      <trkpt lat="48.4123" lon="6.86812">
        <ele>290</ele>
        <time>2018-10-07T11:12:24+02:00</time>
      </trkpt>
      <trkpt lat="48.41208" lon="6.86804">
        <ele>291</ele>
        <time>2018-10-07T11:12:41+02:00</time>
      </trkpt>
      <trkpt lat="48.41193" lon="6.86796">
        <ele>291</ele>
        <time>2018-10-07T11:12:54+02:00</time>
      </trkpt>
      <trkpt lat="48.41176" lon="6.86784">
        <ele>292</ele>
        <time>2018-10-07T11:13:09+02:00</time>
      </trkpt>
      <trkpt lat="48.41169" lon="6.86763">
        <ele>292</ele>
        <time>2018-10-07T11:13:23+02:00</time>
      </trkpt>
      <trkpt lat="48.41175" lon="6.86728">
        <ele>291</ele>
        <time>2018-10-07T11:13:42+02:00</time>
      </trkpt>
      <trkpt lat="48.41178" lon="6.86715">
        <ele>291</ele>
        <time>2018-10-07T11:13:49+02:00</time>
      </trkpt>
      <trkpt lat="48.41181" lon="6.86706">
        <ele>291</ele>
        <time>2018-10-07T11:13:54+02:00</time>
      </trkpt>
      <trkpt lat="48.41183" lon="6.86673">
        <ele>290</ele>
        <time>2018-10-07T11:14:12+02:00</time>
      </trkpt>
      <trkpt lat="48.41183" lon="6.86665">
        <ele>290</ele>
        <time>2018-10-07T11:14:16+02:00</time>
      </trkpt>
      <trkpt lat="48.41183" lon="6.86658">
        <ele>290</ele>
        <time>2018-10-07T11:14:19+02:00</time>
      </trkpt>
      <trkpt lat="48.41181" lon="6.86646">
        <ele>290</ele>
        <time>2018-10-07T11:14:26+02:00</time>
      </trkpt>
      <trkpt lat="48.41176" lon="6.86639">
        <ele>290</ele>
        <time>2018-10-07T11:14:32+02:00</time>
      </trkpt>
      <trkpt lat="48.41168" lon="6.86633">
        <ele>290</ele>
        <time>2018-10-07T11:14:38+02:00</time>
      </trkpt>
      <trkpt lat="48.41149" lon="6.86628">
        <ele>289</ele>
        <time>2018-10-07T11:14:53+02:00</time>
      </trkpt>
      <trkpt lat="48.41143" lon="6.8661">
        <ele>289</ele>
        <time>2018-10-07T11:15:07+02:00</time>
      </trkpt>
      <trkpt lat="48.41142" lon="6.86573">
        <ele>288</ele>
        <time>2018-10-07T11:15:25+02:00</time>
      </trkpt>
      <trkpt lat="48.41143" lon="6.86545">
        <ele>289</ele>
        <time>2018-10-07T11:15:41+02:00</time>
      </trkpt>
      <trkpt lat="48.41143" lon="6.86507">
        <ele>289</ele>
        <time>2018-10-07T11:16:01+02:00</time>
      </trkpt>
      <trkpt lat="48.41143" lon="6.86494">
        <ele>289</ele>
        <time>2018-10-07T11:16:07+02:00</time>
      </trkpt>
      <trkpt lat="48.41132" lon="6.86462">
        <ele>288</ele>
        <time>2018-10-07T11:16:26+02:00</time>
      </trkpt>
      <trkpt lat="48.41117" lon="6.8648">
        <ele>288</ele>
        <time>2018-10-07T11:16:44+02:00</time>
      </trkpt>
      <trkpt lat="48.4111" lon="6.86515">
        <ele>288</ele>
        <time>2018-10-07T11:17:03+02:00</time>
      </trkpt>
      <trkpt lat="48.41094" lon="6.86535">
        <ele>287</ele>
        <time>2018-10-07T11:17:20+02:00</time>
      </trkpt>
      <trkpt lat="48.41075" lon="6.86532">
        <ele>287</ele>
        <time>2018-10-07T11:17:36+02:00</time>
      </trkpt>
      <trkpt lat="48.41061" lon="6.86517">
        <ele>288</ele>
        <time>2018-10-07T11:17:52+02:00</time>
      </trkpt>
      <trkpt lat="48.41058" lon="6.8651">
        <ele>288</ele>
        <time>2018-10-07T11:17:57+02:00</time>
      </trkpt>
      <trkpt lat="48.41057" lon="6.86494">
        <ele>288</ele>
        <time>2018-10-07T11:18:07+02:00</time>
      </trkpt>
      <trkpt lat="48.41057" lon="6.8649">
        <ele>288</ele>
        <time>2018-10-07T11:18:10+02:00</time>
      </trkpt>
      <trkpt lat="48.41054" lon="6.86484">
        <ele>288</ele>
        <time>2018-10-07T11:18:14+02:00</time>
      </trkpt>
      <trkpt lat="48.41051" lon="6.86477">
        <ele>288</ele>
        <time>2018-10-07T11:18:19+02:00</time>
      </trkpt>
      <trkpt lat="48.41042" lon="6.86446">
        <ele>288</ele>
        <time>2018-10-07T11:18:34+02:00</time>
      </trkpt>
      <trkpt lat="48.41039" lon="6.8642">
        <ele>288</ele>
        <time>2018-10-07T11:18:50+02:00</time>
      </trkpt>
      <trkpt lat="48.41044" lon="6.86394">
        <ele>287</ele>
        <time>2018-10-07T11:19:04+02:00</time>
      </trkpt>
      <trkpt lat="48.41051" lon="6.8637">
        <ele>287</ele>
        <time>2018-10-07T11:19:18+02:00</time>
      </trkpt>
      <trkpt lat="48.41053" lon="6.86354">
        <ele>287</ele>
        <time>2018-10-07T11:19:37+02:00</time>
      </trkpt>
      <trkpt lat="48.41053" lon="6.86346">
        <ele>287</ele>
        <time>2018-10-07T11:19:41+02:00</time>
      </trkpt>
      <trkpt lat="48.41051" lon="6.86311">
        <ele>287</ele>
        <time>2018-10-07T11:19:58+02:00</time>
      </trkpt>
      <trkpt lat="48.4106" lon="6.86291">
        <ele>287</ele>
        <time>2018-10-07T11:20:13+02:00</time>
      </trkpt>
      <trkpt lat="48.41069" lon="6.86285">
        <ele>287</ele>
        <time>2018-10-07T11:20:21+02:00</time>
      </trkpt>
      <trkpt lat="48.41075" lon="6.86275">
        <ele>288</ele>
        <time>2018-10-07T11:20:28+02:00</time>
      </trkpt>
      <trkpt lat="48.41087" lon="6.86237">
        <ele>288</ele>
        <time>2018-10-07T11:20:49+02:00</time>
      </trkpt>
      <trkpt lat="48.41078" lon="6.8621">
        <ele>288</ele>
        <time>2018-10-07T11:21:04+02:00</time>
      </trkpt>
      <trkpt lat="48.41059" lon="6.86198">
        <ele>287</ele>
        <time>2018-10-07T11:21:20+02:00</time>
      </trkpt>
      <trkpt lat="48.41055" lon="6.86199">
        <ele>287</ele>
        <time>2018-10-07T11:21:24+02:00</time>
      </trkpt>
      <trkpt lat="48.41036" lon="6.86223">
        <ele>287</ele>
        <time>2018-10-07T11:21:43+02:00</time>
      </trkpt>
      <trkpt lat="48.41021" lon="6.86249">
        <ele>286</ele>
        <time>2018-10-07T11:22:00+02:00</time>
      </trkpt>
      <trkpt lat="48.41006" lon="6.86274">
        <ele>286</ele>
        <time>2018-10-07T11:22:14+02:00</time>
      </trkpt>
      <trkpt lat="48.41" lon="6.86283">
        <ele>286</ele>
        <time>2018-10-07T11:22:20+02:00</time>
      </trkpt>
      <trkpt lat="48.40994" lon="6.86287">
        <ele>287</ele>
        <time>2018-10-07T11:22:25+02:00</time>
      </trkpt>
      <trkpt lat="48.40974" lon="6.8629">
        <ele>289</ele>
        <time>2018-10-07T11:22:40+02:00</time>
      </trkpt>
      <trkpt lat="48.4096" lon="6.86279">
        <ele>290</ele>
        <time>2018-10-07T11:22:55+02:00</time>
      </trkpt>
      <trkpt lat="48.40958" lon="6.86268">
        <ele>290</ele>
        <time>2018-10-07T11:23:00+02:00</time>
      </trkpt>
      <trkpt lat="48.40957" lon="6.86246">
        <ele>290</ele>
        <time>2018-10-07T11:23:11+02:00</time>
      </trkpt>
      <trkpt lat="48.40957" lon="6.86239">
        <ele>290</ele>
        <time>2018-10-07T11:23:14+02:00</time>
      </trkpt>
      <trkpt lat="48.4096" lon="6.86224">
        <ele>290</ele>
        <time>2018-10-07T11:23:22+02:00</time>
      </trkpt>
      <trkpt lat="48.40965" lon="6.86208">
        <ele>289</ele>
        <time>2018-10-07T11:23:31+02:00</time>
      </trkpt>
      <trkpt lat="48.40974" lon="6.86177">
        <ele>288</ele>
        <time>2018-10-07T11:23:47+02:00</time>
      </trkpt>
      <trkpt lat="48.40961" lon="6.86157">
        <ele>289</ele>
        <time>2018-10-07T11:24:02+02:00</time>
      </trkpt>
      <trkpt lat="48.4094" lon="6.86149">
        <ele>291</ele>
        <time>2018-10-07T11:24:16+02:00</time>
      </trkpt>
      <trkpt lat="48.40936" lon="6.86147">
        <ele>291</ele>
        <time>2018-10-07T11:24:20+02:00</time>
      </trkpt>
      <trkpt lat="48.4093" lon="6.86146">
        <ele>291</ele>
        <time>2018-10-07T11:24:24+02:00</time>
      </trkpt>
      <trkpt lat="48.40926" lon="6.86141">
        <ele>291</ele>
        <time>2018-10-07T11:24:29+02:00</time>
      </trkpt>
      <trkpt lat="48.40917" lon="6.86101">
        <ele>291</ele>
        <time>2018-10-07T11:24:49+02:00</time>
      </trkpt>
      <trkpt lat="48.40912" lon="6.86058">
        <ele>290</ele>
        <time>2018-10-07T11:25:11+02:00</time>
      </trkpt>
      <trkpt lat="48.40912" lon="6.86023">
        <ele>290</ele>
        <time>2018-10-07T11:25:29+02:00</time>
      </trkpt>
      <trkpt lat="48.40914" lon="6.86014">
        <ele>290</ele>
        <time>2018-10-07T11:25:34+02:00</time>
      </trkpt>
      <trkpt lat="48.40921" lon="6.85983">
        <ele>290</ele>
        <time>2018-10-07T11:25:51+02:00</time>
      </trkpt>
      <trkpt lat="48.40921" lon="6.85973">
        <ele>290</ele>
        <time>2018-10-07T11:25:56+02:00</time>
      </trkpt>
      <trkpt lat="48.40924" lon="6.85939">
        <ele>289</ele>
        <time>2018-10-07T11:26:14+02:00</time>
      </trkpt>
      <trkpt lat="48.40923" lon="6.85921">
        <ele>289</ele>
        <time>2018-10-07T11:26:24+02:00</time>
      </trkpt>
      <trkpt lat="48.40923" lon="6.85916">
        <ele>289</ele>
        <time>2018-10-07T11:26:27+02:00</time>
      </trkpt>
      <trkpt lat="48.40924" lon="6.85907">
        <ele>289</ele>
        <time>2018-10-07T11:26:32+02:00</time>
      </trkpt>
      <trkpt lat="48.40926" lon="6.85877">
        <ele>288</ele>
        <time>2018-10-07T11:26:48+02:00</time>
      </trkpt>
      <trkpt lat="48.40919" lon="6.85852">
        <ele>287</ele>
        <time>2018-10-07T11:27:03+02:00</time>
      </trkpt>
      <trkpt lat="48.4091" lon="6.85827">
        <ele>287</ele>
        <time>2018-10-07T11:27:17+02:00</time>
      </trkpt>
      <trkpt lat="48.40902" lon="6.85804">
        <ele>288</ele>
        <time>2018-10-07T11:27:30+02:00</time>
      </trkpt>
      <trkpt lat="48.40896" lon="6.85792">
        <ele>289</ele>
        <time>2018-10-07T11:27:50+02:00</time>
      </trkpt>
      <trkpt lat="48.40883" lon="6.85779">
        <ele>290</ele>
        <time>2018-10-07T11:28:03+02:00</time>
      </trkpt>
      <trkpt lat="48.40878" lon="6.85772">
        <ele>290</ele>
        <time>2018-10-07T11:28:07+02:00</time>
      </trkpt>
      <trkpt lat="48.40873" lon="6.85747">
        <ele>291</ele>
        <time>2018-10-07T11:28:22+02:00</time>
      </trkpt>
      <trkpt lat="48.40873" lon="6.85736">
        <ele>290</ele>
        <time>2018-10-07T11:28:27+02:00</time>
      </trkpt>
      <trkpt lat="48.40873" lon="6.85729">
        <ele>290</ele>
        <time>2018-10-07T11:28:30+02:00</time>
      </trkpt>
      <trkpt lat="48.40873" lon="6.85724">
        <ele>290</ele>
        <time>2018-10-07T11:28:32+02:00</time>
      </trkpt>
      <trkpt lat="48.40882" lon="6.85702">
        <ele>290</ele>
        <time>2018-10-07T11:28:47+02:00</time>
      </trkpt>
      <trkpt lat="48.40886" lon="6.85697">
        <ele>290</ele>
        <time>2018-10-07T11:28:51+02:00</time>
      </trkpt>
      <trkpt lat="48.40891" lon="6.85681">
        <ele>290</ele>
        <time>2018-10-07T11:28:59+02:00</time>
      </trkpt>
      <trkpt lat="48.40893" lon="6.85649">
        <ele>289</ele>
        <time>2018-10-07T11:29:15+02:00</time>
      </trkpt>
      <trkpt lat="48.40893" lon="6.85647">
        <ele>289</ele>
        <time>2018-10-07T11:29:16+02:00</time>
      </trkpt>
      <trkpt lat="48.40888" lon="6.85617">
        <ele>288</ele>
        <time>2018-10-07T11:29:33+02:00</time>
      </trkpt>
      <trkpt lat="48.40887" lon="6.85585">
        <ele>288</ele>
        <time>2018-10-07T11:29:51+02:00</time>
      </trkpt>
      <trkpt lat="48.40886" lon="6.85573">
        <ele>288</ele>
        <time>2018-10-07T11:29:57+02:00</time>
      </trkpt>
      <trkpt lat="48.40882" lon="6.85544">
        <ele>288</ele>
        <time>2018-10-07T11:30:11+02:00</time>
      </trkpt>
      <trkpt lat="48.40882" lon="6.85531">
        <ele>287</ele>
        <time>2018-10-07T11:30:20+02:00</time>
      </trkpt>
      <trkpt lat="48.40871" lon="6.85506">
        <ele>288</ele>
        <time>2018-10-07T11:30:36+02:00</time>
      </trkpt>
      <trkpt lat="48.40869" lon="6.85504">
        <ele>288</ele>
        <time>2018-10-07T11:30:37+02:00</time>
      </trkpt>
      <trkpt lat="48.40862" lon="6.85499">
        <ele>288</ele>
        <time>2018-10-07T11:30:42+02:00</time>
      </trkpt>
      <trkpt lat="48.40845" lon="6.855">
        <ele>289</ele>
        <time>2018-10-07T11:30:54+02:00</time>
      </trkpt>
      <trkpt lat="48.40825" lon="6.85509">
        <ele>289</ele>
        <time>2018-10-07T11:31:09+02:00</time>
      </trkpt>
      <trkpt lat="48.40813" lon="6.85513">
        <ele>289</ele>
        <time>2018-10-07T11:31:21+02:00</time>
      </trkpt>
      <trkpt lat="48.40798" lon="6.85492">
        <ele>288</ele>
        <time>2018-10-07T11:31:38+02:00</time>
      </trkpt>
      <trkpt lat="48.4079" lon="6.85462">
        <ele>288</ele>
        <time>2018-10-07T11:31:54+02:00</time>
      </trkpt>
      <trkpt lat="48.40791" lon="6.85427">
        <ele>288</ele>
        <time>2018-10-07T11:32:13+02:00</time>
      </trkpt>
      <trkpt lat="48.40788" lon="6.85391">
        <ele>287</ele>
        <time>2018-10-07T11:32:31+02:00</time>
      </trkpt>
      <trkpt lat="48.40796" lon="6.85356">
        <ele>287</ele>
        <time>2018-10-07T11:32:50+02:00</time>
      </trkpt>
      <trkpt lat="48.40805" lon="6.85319">
        <ele>287</ele>
        <time>2018-10-07T11:33:05+02:00</time>
      </trkpt>
      <trkpt lat="48.40818" lon="6.853">
        <ele>286</ele>
        <time>2018-10-07T11:33:18+02:00</time>
      </trkpt>
      <trkpt lat="48.40822" lon="6.85287">
        <ele>285</ele>
        <time>2018-10-07T11:33:24+02:00</time>
      </trkpt>
      <trkpt lat="48.40824" lon="6.85259">
        <ele>284</ele>
        <time>2018-10-07T11:33:39+02:00</time>
      </trkpt>
      <trkpt lat="48.40824" lon="6.85254">
        <ele>284</ele>
        <time>2018-10-07T11:33:42+02:00</time>
      </trkpt>
      <trkpt lat="48.40834" lon="6.8523">
        <ele>284</ele>
        <time>2018-10-07T11:33:58+02:00</time>
      </trkpt>
      <trkpt lat="48.40843" lon="6.85193">
        <ele>283</ele>
        <time>2018-10-07T11:34:18+02:00</time>
      </trkpt>
      <trkpt lat="48.40848" lon="6.85143">
        <ele>284</ele>
        <time>2018-10-07T11:34:39+02:00</time>
      </trkpt>
      <trkpt lat="48.40849" lon="6.85139">
        <ele>284</ele>
        <time>2018-10-07T11:34:41+02:00</time>
      </trkpt>
      <trkpt lat="48.40841" lon="6.85105">
        <ele>284</ele>
        <time>2018-10-07T11:34:57+02:00</time>
      </trkpt>
      <trkpt lat="48.40823" lon="6.85072">
        <ele>284</ele>
        <time>2018-10-07T11:35:16+02:00</time>
      </trkpt>
      <trkpt lat="48.40821" lon="6.85068">
        <ele>284</ele>
        <time>2018-10-07T11:35:18+02:00</time>
      </trkpt>
      <trkpt lat="48.40817" lon="6.85043">
        <ele>284</ele>
        <time>2018-10-07T11:35:34+02:00</time>
      </trkpt>
      <trkpt lat="48.40814" lon="6.85012">
        <ele>284</ele>
        <time>2018-10-07T11:35:51+02:00</time>
      </trkpt>
      <trkpt lat="48.40808" lon="6.84974">
        <ele>284</ele>
        <time>2018-10-07T11:36:09+02:00</time>
      </trkpt>
      <trkpt lat="48.40806" lon="6.84948">
        <ele>284</ele>
        <time>2018-10-07T11:36:24+02:00</time>
      </trkpt>
      <trkpt lat="48.40806" lon="6.84918">
        <ele>284</ele>
        <time>2018-10-07T11:36:38+02:00</time>
      </trkpt>
      <trkpt lat="48.40809" lon="6.84884">
        <ele>284</ele>
        <time>2018-10-07T11:36:56+02:00</time>
      </trkpt>
      <trkpt lat="48.40808" lon="6.84871">
        <ele>283</ele>
        <time>2018-10-07T11:37:03+02:00</time>
      </trkpt>
      <trkpt lat="48.40794" lon="6.84843">
        <ele>283</ele>
        <time>2018-10-07T11:37:20+02:00</time>
      </trkpt>
      <trkpt lat="48.40786" lon="6.84828">
        <ele>282</ele>
        <time>2018-10-07T11:37:31+02:00</time>
      </trkpt>
      <trkpt lat="48.40774" lon="6.84788">
        <ele>282</ele>
        <time>2018-10-07T11:37:55+02:00</time>
      </trkpt>
      <trkpt lat="48.40771" lon="6.84782">
        <ele>282</ele>
        <time>2018-10-07T11:38:09+02:00</time>
      </trkpt>
      <trkpt lat="48.40775" lon="6.84777">
        <ele>282</ele>
        <time>2018-10-07T11:38:25+02:00</time>
      </trkpt>
      <trkpt lat="48.4077" lon="6.8477">
        <ele>282</ele>
        <time>2018-10-07T11:44:33+02:00</time>
      </trkpt>
    </trkseg>
  </trk>
</gpx>